<?xml version="1.0" encoding="UTF-8" standalone="no" ?>
<gpx xmlns="http://www.topografix.com/GPX/1/1" xmlns:xsi="http://www.w3.org/2001/XMLSchema-instance" xsi:schemaLocation="http://www.topografix.com/GPX/1/1 http://www.topografix.com/GPX/1/1/gpx.xsd" version="1.1" creator="VisuGPX - https://www.visugpx.com">
  <metadata>
    <name>20221003_085524.gpx</name>
  </metadata>
  <trk>
    <name><![CDATA[20221003_085524.gpx]]></name>
    <trkseg>
      <trkpt lat="45.2463" lon="5.62875">
        <ele>208.43466</ele>
        <time>2022-10-03T06:56:26Z</time>
      </trkpt>
      <trkpt lat="45.2462" lon="5.62882">
        <ele>208.44518</ele>
        <time>2022-10-03T06:56:36Z</time>
      </trkpt>
      <trkpt lat="45.24611" lon="5.62892">
        <ele>207.97205</ele>
        <time>2022-10-03T06:56:55Z</time>
      </trkpt>
      <trkpt lat="45.24587" lon="5.62955">
        <ele>205.12267</ele>
        <time>2022-10-03T06:57:05Z</time>
      </trkpt>
      <trkpt lat="45.24553" lon="5.63034">
        <ele>201.80542</ele>
        <time>2022-10-03T06:57:15Z</time>
      </trkpt>
      <trkpt lat="45.24513" lon="5.63098">
        <ele>198.77206</ele>
        <time>2022-10-03T06:57:25Z</time>
      </trkpt>
      <trkpt lat="45.24429" lon="5.63133">
        <ele>193.78304</ele>
        <time>2022-10-03T06:57:35Z</time>
      </trkpt>
      <trkpt lat="45.24376" lon="5.63157">
        <ele>189.40385</ele>
        <time>2022-10-03T06:57:45Z</time>
      </trkpt>
      <trkpt lat="45.24374" lon="5.63214">
        <ele>185.87633</ele>
        <time>2022-10-03T06:57:55Z</time>
      </trkpt>
      <trkpt lat="45.24386" lon="5.63241">
        <ele>184.69348</ele>
        <time>2022-10-03T06:58:15Z</time>
      </trkpt>
      <trkpt lat="45.244" lon="5.63305">
        <ele>183.48433</ele>
        <time>2022-10-03T06:58:25Z</time>
      </trkpt>
      <trkpt lat="45.24424" lon="5.63386">
        <ele>182.9849</ele>
        <time>2022-10-03T06:58:35Z</time>
      </trkpt>
      <trkpt lat="45.24434" lon="5.63452">
        <ele>182.7273</ele>
        <time>2022-10-03T06:58:45Z</time>
      </trkpt>
      <trkpt lat="45.24401" lon="5.63492">
        <ele>182.5065</ele>
        <time>2022-10-03T06:58:55Z</time>
      </trkpt>
      <trkpt lat="45.24352" lon="5.63519">
        <ele>182.0912</ele>
        <time>2022-10-03T06:59:05Z</time>
      </trkpt>
      <trkpt lat="45.24302" lon="5.63575">
        <ele>182.17531</ele>
        <time>2022-10-03T06:59:15Z</time>
      </trkpt>
      <trkpt lat="45.24265" lon="5.63649">
        <ele>182.38559</ele>
        <time>2022-10-03T06:59:25Z</time>
      </trkpt>
      <trkpt lat="45.24208" lon="5.63694">
        <ele>182.26994</ele>
        <time>2022-10-03T06:59:35Z</time>
      </trkpt>
      <trkpt lat="45.24192" lon="5.63783">
        <ele>182.70102</ele>
        <time>2022-10-03T06:59:45Z</time>
      </trkpt>
      <trkpt lat="45.24163" lon="5.63852">
        <ele>183.20045</ele>
        <time>2022-10-03T06:59:55Z</time>
      </trkpt>
      <trkpt lat="45.24134" lon="5.63934">
        <ele>183.10582</ele>
        <time>2022-10-03T07:00:05Z</time>
      </trkpt>
      <trkpt lat="45.24103" lon="5.64016">
        <ele>183.22673</ele>
        <time>2022-10-03T07:00:15Z</time>
      </trkpt>
      <trkpt lat="45.24075" lon="5.64087">
        <ele>183.38445</ele>
        <time>2022-10-03T07:00:25Z</time>
      </trkpt>
      <trkpt lat="45.24048" lon="5.64159">
        <ele>183.78398</ele>
        <time>2022-10-03T07:00:35Z</time>
      </trkpt>
      <trkpt lat="45.24017" lon="5.6423">
        <ele>183.41074</ele>
        <time>2022-10-03T07:00:45Z</time>
      </trkpt>
      <trkpt lat="45.23968" lon="5.64281">
        <ele>183.53165</ele>
        <time>2022-10-03T07:00:55Z</time>
      </trkpt>
      <trkpt lat="45.23918" lon="5.64331">
        <ele>184.1257</ele>
        <time>2022-10-03T07:01:05Z</time>
      </trkpt>
      <trkpt lat="45.23866" lon="5.64386">
        <ele>184.09415</ele>
        <time>2022-10-03T07:01:15Z</time>
      </trkpt>
      <trkpt lat="45.23815" lon="5.6444">
        <ele>183.9154</ele>
        <time>2022-10-03T07:01:25Z</time>
      </trkpt>
      <trkpt lat="45.23779" lon="5.64492">
        <ele>184.11519</ele>
        <time>2022-10-03T07:01:35Z</time>
      </trkpt>
      <trkpt lat="45.23756" lon="5.64579">
        <ele>184.06787</ele>
        <time>2022-10-03T07:01:45Z</time>
      </trkpt>
      <trkpt lat="45.23728" lon="5.64663">
        <ele>184.2992</ele>
        <time>2022-10-03T07:01:55Z</time>
      </trkpt>
      <trkpt lat="45.23683" lon="5.64725">
        <ele>184.94582</ele>
        <time>2022-10-03T07:02:05Z</time>
      </trkpt>
      <trkpt lat="45.23637" lon="5.6479">
        <ele>184.94055</ele>
        <time>2022-10-03T07:02:15Z</time>
      </trkpt>
      <trkpt lat="45.23589" lon="5.64854">
        <ele>185.1561</ele>
        <time>2022-10-03T07:02:25Z</time>
      </trkpt>
      <trkpt lat="45.23545" lon="5.6492">
        <ele>184.83542</ele>
        <time>2022-10-03T07:02:35Z</time>
      </trkpt>
      <trkpt lat="45.235" lon="5.64985">
        <ele>185.12456</ele>
        <time>2022-10-03T07:02:45Z</time>
      </trkpt>
      <trkpt lat="45.23455" lon="5.65048">
        <ele>185.28226</ele>
        <time>2022-10-03T07:02:55Z</time>
      </trkpt>
      <trkpt lat="45.23421" lon="5.65102">
        <ele>185.8185</ele>
        <time>2022-10-03T07:03:05Z</time>
      </trkpt>
      <trkpt lat="45.23439" lon="5.65182">
        <ele>185.48204</ele>
        <time>2022-10-03T07:03:15Z</time>
      </trkpt>
      <trkpt lat="45.2346" lon="5.65266">
        <ele>185.39267</ele>
        <time>2022-10-03T07:03:25Z</time>
      </trkpt>
      <trkpt lat="45.23482" lon="5.65353">
        <ele>185.4505</ele>
        <time>2022-10-03T07:03:35Z</time>
      </trkpt>
      <trkpt lat="45.23504" lon="5.65439">
        <ele>185.28226</ele>
        <time>2022-10-03T07:03:45Z</time>
      </trkpt>
      <trkpt lat="45.2352" lon="5.65525">
        <ele>187.02238</ele>
        <time>2022-10-03T07:03:55Z</time>
      </trkpt>
      <trkpt lat="45.23535" lon="5.65578">
        <ele>188.74672</ele>
        <time>2022-10-03T07:04:05Z</time>
      </trkpt>
      <trkpt lat="45.23553" lon="5.65634">
        <ele>190.88112</ele>
        <time>2022-10-03T07:04:15Z</time>
      </trkpt>
      <trkpt lat="45.23572" lon="5.65687">
        <ele>193.36247</ele>
        <time>2022-10-03T07:04:25Z</time>
      </trkpt>
      <trkpt lat="45.23593" lon="5.65747">
        <ele>193.98808</ele>
        <time>2022-10-03T07:04:35Z</time>
      </trkpt>
      <trkpt lat="45.2362" lon="5.65818">
        <ele>194.00386</ele>
        <time>2022-10-03T07:04:45Z</time>
      </trkpt>
      <trkpt lat="45.23644" lon="5.6589">
        <ele>193.7883</ele>
        <time>2022-10-03T07:04:55Z</time>
      </trkpt>
      <trkpt lat="45.23678" lon="5.65976">
        <ele>193.2731</ele>
        <time>2022-10-03T07:05:05Z</time>
      </trkpt>
      <trkpt lat="45.23697" lon="5.65999">
        <ele>192.78946</ele>
        <time>2022-10-03T07:05:15Z</time>
      </trkpt>
      <trkpt lat="45.23682" lon="5.6605">
        <ele>190.46056</ele>
        <time>2022-10-03T07:05:25Z</time>
      </trkpt>
      <trkpt lat="45.23629" lon="5.66047">
        <ele>191.52249</ele>
        <time>2022-10-03T07:05:35Z</time>
      </trkpt>
      <trkpt lat="45.23579" lon="5.66063">
        <ele>192.65277</ele>
        <time>2022-10-03T07:05:45Z</time>
      </trkpt>
      <trkpt lat="45.23524" lon="5.66107">
        <ele>192.35837</ele>
        <time>2022-10-03T07:05:55Z</time>
      </trkpt>
      <trkpt lat="45.23468" lon="5.66152">
        <ele>192.3058</ele>
        <time>2022-10-03T07:06:05Z</time>
      </trkpt>
      <trkpt lat="45.2341" lon="5.66193">
        <ele>192.41093</ele>
        <time>2022-10-03T07:06:15Z</time>
      </trkpt>
      <trkpt lat="45.23351" lon="5.66231">
        <ele>192.34785</ele>
        <time>2022-10-03T07:06:25Z</time>
      </trkpt>
      <trkpt lat="45.23293" lon="5.66273">
        <ele>192.25848</ele>
        <time>2022-10-03T07:06:35Z</time>
      </trkpt>
      <trkpt lat="45.23238" lon="5.66317">
        <ele>192.22168</ele>
        <time>2022-10-03T07:06:45Z</time>
      </trkpt>
      <trkpt lat="45.23182" lon="5.66361">
        <ele>192.17438</ele>
        <time>2022-10-03T07:06:55Z</time>
      </trkpt>
      <trkpt lat="45.23126" lon="5.66403">
        <ele>192.10075</ele>
        <time>2022-10-03T07:07:05Z</time>
      </trkpt>
      <trkpt lat="45.23062" lon="5.66446">
        <ele>192.17963</ele>
        <time>2022-10-03T07:07:15Z</time>
      </trkpt>
      <trkpt lat="45.23005" lon="5.66485">
        <ele>192.25322</ele>
        <time>2022-10-03T07:07:25Z</time>
      </trkpt>
      <trkpt lat="45.22946" lon="5.6653">
        <ele>191.92201</ele>
        <time>2022-10-03T07:07:35Z</time>
      </trkpt>
      <trkpt lat="45.22895" lon="5.66565">
        <ele>191.97984</ele>
        <time>2022-10-03T07:07:45Z</time>
      </trkpt>
      <trkpt lat="45.22835" lon="5.66606">
        <ele>191.85895</ele>
        <time>2022-10-03T07:07:55Z</time>
      </trkpt>
      <trkpt lat="45.22775" lon="5.66653">
        <ele>191.9851</ele>
        <time>2022-10-03T07:08:05Z</time>
      </trkpt>
      <trkpt lat="45.22716" lon="5.66694">
        <ele>191.92201</ele>
        <time>2022-10-03T07:08:15Z</time>
      </trkpt>
      <trkpt lat="45.22656" lon="5.66739">
        <ele>191.8011</ele>
        <time>2022-10-03T07:08:25Z</time>
      </trkpt>
      <trkpt lat="45.22598" lon="5.66785">
        <ele>191.76956</ele>
        <time>2022-10-03T07:08:35Z</time>
      </trkpt>
      <trkpt lat="45.2254" lon="5.66824">
        <ele>191.68546</ele>
        <time>2022-10-03T07:08:45Z</time>
      </trkpt>
      <trkpt lat="45.22483" lon="5.66861">
        <ele>191.85368</ele>
        <time>2022-10-03T07:08:55Z</time>
      </trkpt>
      <trkpt lat="45.2243" lon="5.66902">
        <ele>192.07974</ele>
        <time>2022-10-03T07:09:05Z</time>
      </trkpt>
      <trkpt lat="45.22422" lon="5.66972">
        <ele>192.15334</ele>
        <time>2022-10-03T07:09:15Z</time>
      </trkpt>
      <trkpt lat="45.22431" lon="5.66997">
        <ele>189.68774</ele>
        <time>2022-10-03T07:09:25Z</time>
      </trkpt>
      <trkpt lat="45.22443" lon="5.67084">
        <ele>192.34259</ele>
        <time>2022-10-03T07:09:41Z</time>
      </trkpt>
      <trkpt lat="45.22461" lon="5.67157">
        <ele>191.91678</ele>
        <time>2022-10-03T07:09:51Z</time>
      </trkpt>
      <trkpt lat="45.22477" lon="5.67169">
        <ele>192.48454</ele>
        <time>2022-10-03T07:10:01Z</time>
      </trkpt>
      <trkpt lat="45.22495" lon="5.67162">
        <ele>192.01665</ele>
        <time>2022-10-03T07:10:11Z</time>
      </trkpt>
      <trkpt lat="45.22511" lon="5.67228">
        <ele>192.50555</ele>
        <time>2022-10-03T07:10:21Z</time>
      </trkpt>
      <trkpt lat="45.22533" lon="5.67302">
        <ele>192.637</ele>
        <time>2022-10-03T07:10:31Z</time>
      </trkpt>
      <trkpt lat="45.22556" lon="5.67381">
        <ele>192.73161</ele>
        <time>2022-10-03T07:10:41Z</time>
      </trkpt>
      <trkpt lat="45.2258" lon="5.6746">
        <ele>193.11014</ele>
        <time>2022-10-03T07:10:51Z</time>
      </trkpt>
      <trkpt lat="45.22619" lon="5.67542">
        <ele>189.67197</ele>
        <time>2022-10-03T07:11:01Z</time>
      </trkpt>
      <trkpt lat="45.22644" lon="5.67619">
        <ele>192.50555</ele>
        <time>2022-10-03T07:11:11Z</time>
      </trkpt>
      <trkpt lat="45.22662" lon="5.67687">
        <ele>193.74625</ele>
        <time>2022-10-03T07:11:21Z</time>
      </trkpt>
      <trkpt lat="45.22689" lon="5.67761">
        <ele>194.07745</ele>
        <time>2022-10-03T07:11:31Z</time>
      </trkpt>
      <trkpt lat="45.22715" lon="5.67834">
        <ele>194.81345</ele>
        <time>2022-10-03T07:11:41Z</time>
      </trkpt>
      <trkpt lat="45.22744" lon="5.67908">
        <ele>195.43904</ele>
        <time>2022-10-03T07:11:51Z</time>
      </trkpt>
      <trkpt lat="45.22773" lon="5.67985">
        <ele>196.0699</ele>
        <time>2022-10-03T07:12:01Z</time>
      </trkpt>
      <trkpt lat="45.22802" lon="5.68063">
        <ele>196.39583</ele>
        <time>2022-10-03T07:12:11Z</time>
      </trkpt>
      <trkpt lat="45.22832" lon="5.68138">
        <ele>197.1371</ele>
        <time>2022-10-03T07:12:21Z</time>
      </trkpt>
      <trkpt lat="45.22868" lon="5.68202">
        <ele>198.31995</ele>
        <time>2022-10-03T07:12:31Z</time>
      </trkpt>
      <trkpt lat="45.22913" lon="5.68251">
        <ele>199.48705</ele>
        <time>2022-10-03T07:12:41Z</time>
      </trkpt>
      <trkpt lat="45.22943" lon="5.68284">
        <ele>200.96954</ele>
        <time>2022-10-03T07:12:51Z</time>
      </trkpt>
      <trkpt lat="45.2296" lon="5.68301">
        <ele>200.84863</ele>
        <time>2022-10-03T07:14:56Z</time>
      </trkpt>
      <trkpt lat="45.2301" lon="5.68335">
        <ele>200.754</ele>
        <time>2022-10-03T07:15:06Z</time>
      </trkpt>
      <trkpt lat="45.23051" lon="5.68356">
        <ele>200.84337</ele>
        <time>2022-10-03T07:15:16Z</time>
      </trkpt>
      <trkpt lat="45.23097" lon="5.68375">
        <ele>201.39539</ele>
        <time>2022-10-03T07:15:26Z</time>
      </trkpt>
      <trkpt lat="45.23136" lon="5.68419">
        <ele>201.98943</ele>
        <time>2022-10-03T07:15:36Z</time>
      </trkpt>
      <trkpt lat="45.2317" lon="5.68471">
        <ele>202.3259</ele>
        <time>2022-10-03T07:15:46Z</time>
      </trkpt>
      <trkpt lat="45.23215" lon="5.68516">
        <ele>202.82005</ele>
        <time>2022-10-03T07:15:56Z</time>
      </trkpt>
      <trkpt lat="45.23265" lon="5.68562">
        <ele>203.62439</ele>
        <time>2022-10-03T07:16:06Z</time>
      </trkpt>
      <trkpt lat="45.23315" lon="5.68602">
        <ele>204.82828</ele>
        <time>2022-10-03T07:16:16Z</time>
      </trkpt>
      <trkpt lat="45.23363" lon="5.68646">
        <ele>205.15947</ele>
        <time>2022-10-03T07:16:26Z</time>
      </trkpt>
      <trkpt lat="45.23414" lon="5.68693">
        <ele>206.03743</ele>
        <time>2022-10-03T07:16:36Z</time>
      </trkpt>
      <trkpt lat="45.23459" lon="5.68737">
        <ele>206.86804</ele>
        <time>2022-10-03T07:16:46Z</time>
      </trkpt>
      <trkpt lat="45.23505" lon="5.68785">
        <ele>207.65135</ele>
        <time>2022-10-03T07:16:56Z</time>
      </trkpt>
      <trkpt lat="45.2355" lon="5.68826">
        <ele>208.68176</ele>
        <time>2022-10-03T07:17:06Z</time>
      </trkpt>
      <trkpt lat="45.23595" lon="5.68869">
        <ele>209.86461</ele>
        <time>2022-10-03T07:17:16Z</time>
      </trkpt>
      <trkpt lat="45.23641" lon="5.68912">
        <ele>210.7846</ele>
        <time>2022-10-03T07:17:26Z</time>
      </trkpt>
      <trkpt lat="45.23689" lon="5.68953">
        <ele>211.7309</ele>
        <time>2022-10-03T07:17:36Z</time>
      </trkpt>
      <trkpt lat="45.23743" lon="5.68963">
        <ele>213.00836</ele>
        <time>2022-10-03T07:17:46Z</time>
      </trkpt>
      <trkpt lat="45.23788" lon="5.68971">
        <ele>214.44357</ele>
        <time>2022-10-03T07:17:56Z</time>
      </trkpt>
      <trkpt lat="45.23835" lon="5.68983">
        <ele>216.03122</ele>
        <time>2022-10-03T07:18:06Z</time>
      </trkpt>
      <trkpt lat="45.23877" lon="5.6899">
        <ele>218.26025</ele>
        <time>2022-10-03T07:18:16Z</time>
      </trkpt>
      <trkpt lat="45.23911" lon="5.69005">
        <ele>220.28424</ele>
        <time>2022-10-03T07:18:26Z</time>
      </trkpt>
      <trkpt lat="45.23941" lon="5.69024">
        <ele>222.14</ele>
        <time>2022-10-03T07:18:36Z</time>
      </trkpt>
      <trkpt lat="45.23969" lon="5.69067">
        <ele>223.41748</ele>
        <time>2022-10-03T07:18:46Z</time>
      </trkpt>
      <trkpt lat="45.2399" lon="5.69112">
        <ele>225.15761</ele>
        <time>2022-10-03T07:18:56Z</time>
      </trkpt>
      <trkpt lat="45.23996" lon="5.69157">
        <ele>225.0472</ele>
        <time>2022-10-03T07:19:06Z</time>
      </trkpt>
      <trkpt lat="45.24002" lon="5.69184">
        <ele>225.62022</ele>
        <time>2022-10-03T07:19:16Z</time>
      </trkpt>
      <trkpt lat="45.24009" lon="5.69198">
        <ele>225.44148</ele>
        <time>2022-10-03T07:19:52Z</time>
      </trkpt>
      <trkpt lat="45.24017" lon="5.69244">
        <ele>225.25223</ele>
        <time>2022-10-03T07:20:02Z</time>
      </trkpt>
      <trkpt lat="45.2406" lon="5.6927">
        <ele>226.62961</ele>
        <time>2022-10-03T07:20:12Z</time>
      </trkpt>
      <trkpt lat="45.2408" lon="5.69302">
        <ele>228.48537</ele>
        <time>2022-10-03T07:20:22Z</time>
      </trkpt>
      <trkpt lat="45.24096" lon="5.69332">
        <ele>229.65244</ele>
        <time>2022-10-03T07:20:32Z</time>
      </trkpt>
      <trkpt lat="45.24119" lon="5.69358">
        <ele>231.55553</ele>
        <time>2022-10-03T07:20:42Z</time>
      </trkpt>
      <trkpt lat="45.24145" lon="5.69385">
        <ele>233.33769</ele>
        <time>2022-10-03T07:20:52Z</time>
      </trkpt>
      <trkpt lat="45.24167" lon="5.69418">
        <ele>234.98317</ele>
        <time>2022-10-03T07:21:02Z</time>
      </trkpt>
      <trkpt lat="45.24196" lon="5.69444">
        <ele>237.27002</ele>
        <time>2022-10-03T07:21:12Z</time>
      </trkpt>
      <trkpt lat="45.24228" lon="5.69465">
        <ele>238.33195</ele>
        <time>2022-10-03T07:21:22Z</time>
      </trkpt>
      <trkpt lat="45.2427" lon="5.6948">
        <ele>239.6147</ele>
        <time>2022-10-03T07:21:32Z</time>
      </trkpt>
      <trkpt lat="45.24306" lon="5.6948">
        <ele>240.84486</ele>
        <time>2022-10-03T07:21:42Z</time>
      </trkpt>
      <trkpt lat="45.24341" lon="5.69477">
        <ele>240.29288</ele>
        <time>2022-10-03T07:21:52Z</time>
      </trkpt>
      <trkpt lat="45.2434" lon="5.69481">
        <ele>240.45058</ele>
        <time>2022-10-03T07:22:02Z</time>
      </trkpt>
      <trkpt lat="45.24319" lon="5.69482">
        <ele>240.77127</ele>
        <time>2022-10-03T07:22:12Z</time>
      </trkpt>
      <trkpt lat="45.24283" lon="5.69484">
        <ele>240.06155</ele>
        <time>2022-10-03T07:22:22Z</time>
      </trkpt>
      <trkpt lat="45.2423" lon="5.69472">
        <ele>238.41081</ele>
        <time>2022-10-03T07:22:32Z</time>
      </trkpt>
      <trkpt lat="45.24187" lon="5.69441">
        <ele>236.69699</ele>
        <time>2022-10-03T07:22:42Z</time>
      </trkpt>
      <trkpt lat="45.24145" lon="5.69392">
        <ele>233.15895</ele>
        <time>2022-10-03T07:22:52Z</time>
      </trkpt>
      <trkpt lat="45.24099" lon="5.69342">
        <ele>229.92581</ele>
        <time>2022-10-03T07:23:02Z</time>
      </trkpt>
      <trkpt lat="45.24075" lon="5.69298">
        <ele>228.01747</ele>
        <time>2022-10-03T07:23:12Z</time>
      </trkpt>
      <trkpt lat="45.24069" lon="5.69295">
        <ele>227.71255</ele>
        <time>2022-10-03T07:23:22Z</time>
      </trkpt>
      <trkpt lat="45.24074" lon="5.69327">
        <ele>232.29677</ele>
        <time>2022-10-03T07:23:32Z</time>
      </trkpt>
      <trkpt lat="45.24071" lon="5.69353">
        <ele>237.35414</ele>
        <time>2022-10-03T07:23:42Z</time>
      </trkpt>
      <trkpt lat="45.2407" lon="5.69385">
        <ele>243.23686</ele>
        <time>2022-10-03T07:23:52Z</time>
      </trkpt>
      <trkpt lat="45.24077" lon="5.69406">
        <ele>245.87595</ele>
        <time>2022-10-03T07:24:02Z</time>
      </trkpt>
      <trkpt lat="45.24083" lon="5.69413">
        <ele>245.99161</ele>
        <time>2022-10-03T07:24:12Z</time>
      </trkpt>
      <trkpt lat="45.24091" lon="5.69432">
        <ele>252.85216</ele>
        <time>2022-10-03T07:25:12Z</time>
      </trkpt>
      <trkpt lat="45.24091" lon="5.69445">
        <ele>255.51227</ele>
        <time>2022-10-03T07:25:28Z</time>
      </trkpt>
      <trkpt lat="45.24093" lon="5.69454">
        <ele>257.36276</ele>
        <time>2022-10-03T07:25:40Z</time>
      </trkpt>
      <trkpt lat="45.24101" lon="5.69464">
        <ele>258.82425</ele>
        <time>2022-10-03T07:25:56Z</time>
      </trkpt>
      <trkpt lat="45.24099" lon="5.69462">
        <ele>259.31842</ele>
        <time>2022-10-03T07:26:06Z</time>
      </trkpt>
      <trkpt lat="45.24097" lon="5.69482">
        <ele>264.19702</ele>
        <time>2022-10-03T07:27:12Z</time>
      </trkpt>
      <trkpt lat="45.24087" lon="5.69488">
        <ele>264.22333</ele>
        <time>2022-10-03T07:27:22Z</time>
      </trkpt>
      <trkpt lat="45.24064" lon="5.69488">
        <ele>264.99612</ele>
        <time>2022-10-03T07:27:44Z</time>
      </trkpt>
      <trkpt lat="45.24047" lon="5.69484">
        <ele>267.78766</ele>
        <time>2022-10-03T07:27:54Z</time>
      </trkpt>
      <trkpt lat="45.24031" lon="5.69502">
        <ele>271.96707</ele>
        <time>2022-10-03T07:28:04Z</time>
      </trkpt>
      <trkpt lat="45.24009" lon="5.6951">
        <ele>273.60205</ele>
        <time>2022-10-03T07:28:14Z</time>
      </trkpt>
      <trkpt lat="45.23984" lon="5.69519">
        <ele>272.1721</ele>
        <time>2022-10-03T07:28:24Z</time>
        <extensions>
          <gpxtpx:TrackPointExtension xmlns:gpxtpx="http://www.garmin.com/xmlschemas/TrackPointExtension/v1">
            <gpxtpx:hr>138</gpxtpx:hr>
          </gpxtpx:TrackPointExtension>
        </extensions>
      </trkpt>
      <trkpt lat="45.23967" lon="5.69528">
        <ele>268.08206</ele>
        <time>2022-10-03T07:28:34Z</time>
      </trkpt>
      <trkpt lat="45.23945" lon="5.69527">
        <ele>262.60938</ele>
        <time>2022-10-03T07:28:44Z</time>
      </trkpt>
      <trkpt lat="45.23904" lon="5.69491">
        <ele>256.2693</ele>
        <time>2022-10-03T07:28:54Z</time>
      </trkpt>
      <trkpt lat="45.23878" lon="5.6946">
        <ele>254.48712</ele>
        <time>2022-10-03T07:29:04Z</time>
      </trkpt>
      <trkpt lat="45.23871" lon="5.69453">
        <ele>254.47136</ele>
        <time>2022-10-03T07:29:20Z</time>
      </trkpt>
      <trkpt lat="45.23854" lon="5.69458">
        <ele>250.62312</ele>
        <time>2022-10-03T07:29:48Z</time>
      </trkpt>
      <trkpt lat="45.23819" lon="5.69459">
        <ele>250.68095</ele>
        <time>2022-10-03T07:29:58Z</time>
      </trkpt>
      <trkpt lat="45.23783" lon="5.6945">
        <ele>250.73354</ele>
        <time>2022-10-03T07:30:08Z</time>
      </trkpt>
      <trkpt lat="45.23757" lon="5.69436">
        <ele>249.46657</ele>
        <time>2022-10-03T07:30:18Z</time>
      </trkpt>
      <trkpt lat="45.2375" lon="5.69434">
        <ele>245.43959</ele>
        <time>2022-10-03T07:33:04Z</time>
      </trkpt>
      <trkpt lat="45.23723" lon="5.69437">
        <ele>240.57149</ele>
        <time>2022-10-03T07:33:14Z</time>
      </trkpt>
      <trkpt lat="45.23701" lon="5.69453">
        <ele>241.60715</ele>
        <time>2022-10-03T07:33:24Z</time>
        <extensions>
          <gpxtpx:TrackPointExtension xmlns:gpxtpx="http://www.garmin.com/xmlschemas/TrackPointExtension/v1">
            <gpxtpx:hr>104</gpxtpx:hr>
          </gpxtpx:TrackPointExtension>
        </extensions>
      </trkpt>
      <trkpt lat="45.23678" lon="5.69469">
        <ele>241.29172</ele>
        <time>2022-10-03T07:33:34Z</time>
      </trkpt>
      <trkpt lat="45.23632" lon="5.69462">
        <ele>239.5043</ele>
        <time>2022-10-03T07:33:44Z</time>
      </trkpt>
      <trkpt lat="45.236" lon="5.69466">
        <ele>242.7795</ele>
        <time>2022-10-03T07:33:54Z</time>
      </trkpt>
      <trkpt lat="45.23596" lon="5.69484">
        <ele>243.71526</ele>
        <time>2022-10-03T07:34:04Z</time>
      </trkpt>
      <trkpt lat="45.23587" lon="5.69489">
        <ele>245.96532</ele>
        <time>2022-10-03T07:34:20Z</time>
      </trkpt>
      <trkpt lat="45.23582" lon="5.69487">
        <ele>247.35846</ele>
        <time>2022-10-03T07:34:32Z</time>
      </trkpt>
      <trkpt lat="45.23579" lon="5.69498">
        <ele>249.46657</ele>
        <time>2022-10-03T07:34:44Z</time>
      </trkpt>
      <trkpt lat="45.23571" lon="5.69504">
        <ele>251.85857</ele>
        <time>2022-10-03T07:35:00Z</time>
      </trkpt>
      <trkpt lat="45.23563" lon="5.69508">
        <ele>254.68164</ele>
        <time>2022-10-03T07:35:36Z</time>
      </trkpt>
      <trkpt lat="45.23555" lon="5.69512">
        <ele>256.58472</ele>
        <time>2022-10-03T07:35:56Z</time>
      </trkpt>
      <trkpt lat="45.23547" lon="5.69513">
        <ele>258.9084</ele>
        <time>2022-10-03T07:36:12Z</time>
      </trkpt>
      <trkpt lat="45.23541" lon="5.69523">
        <ele>261.05328</ele>
        <time>2022-10-03T07:36:28Z</time>
      </trkpt>
      <trkpt lat="45.23536" lon="5.69526">
        <ele>263.9447</ele>
        <time>2022-10-03T07:37:12Z</time>
      </trkpt>
      <trkpt lat="45.23525" lon="5.69535">
        <ele>267.1831</ele>
        <time>2022-10-03T07:37:44Z</time>
      </trkpt>
      <trkpt lat="45.23517" lon="5.6954">
        <ele>269.512</ele>
        <time>2022-10-03T07:38:08Z</time>
      </trkpt>
      <trkpt lat="45.23505" lon="5.69544">
        <ele>270.58444</ele>
        <time>2022-10-03T07:38:20Z</time>
      </trkpt>
      <trkpt lat="45.23493" lon="5.69546">
        <ele>271.85666</ele>
        <time>2022-10-03T07:38:32Z</time>
      </trkpt>
      <trkpt lat="45.23484" lon="5.69558">
        <ele>273.20776</ele>
        <time>2022-10-03T07:38:44Z</time>
      </trkpt>
      <trkpt lat="45.23467" lon="5.69552">
        <ele>267.5406</ele>
        <time>2022-10-03T07:41:09Z</time>
      </trkpt>
      <trkpt lat="45.23459" lon="5.6955">
        <ele>266.15268</ele>
        <time>2022-10-03T07:41:21Z</time>
      </trkpt>
      <trkpt lat="45.23452" lon="5.69556">
        <ele>264.72275</ele>
        <time>2022-10-03T07:41:33Z</time>
      </trkpt>
      <trkpt lat="45.2343" lon="5.6954">
        <ele>255.04962</ele>
        <time>2022-10-03T07:42:12Z</time>
      </trkpt>
      <trkpt lat="45.23409" lon="5.69529">
        <ele>251.18039</ele>
        <time>2022-10-03T07:42:22Z</time>
      </trkpt>
      <trkpt lat="45.23403" lon="5.69522">
        <ele>244.6405</ele>
        <time>2022-10-03T07:43:13Z</time>
      </trkpt>
      <trkpt lat="45.23399" lon="5.6951">
        <ele>243.24213</ele>
        <time>2022-10-03T07:43:25Z</time>
      </trkpt>
      <trkpt lat="45.23397" lon="5.69495">
        <ele>240.77127</ele>
        <time>2022-10-03T07:43:41Z</time>
      </trkpt>
      <trkpt lat="45.23397" lon="5.69482">
        <ele>237.66957</ele>
        <time>2022-10-03T07:44:01Z</time>
      </trkpt>
      <trkpt lat="45.23399" lon="5.69466">
        <ele>234.92009</ele>
        <time>2022-10-03T07:44:21Z</time>
      </trkpt>
      <trkpt lat="45.23399" lon="5.69457">
        <ele>232.79094</ele>
        <time>2022-10-03T07:44:37Z</time>
      </trkpt>
      <trkpt lat="45.23396" lon="5.69444">
        <ele>230.08353</ele>
        <time>2022-10-03T07:45:01Z</time>
      </trkpt>
      <trkpt lat="45.23392" lon="5.69432">
        <ele>226.45084</ele>
        <time>2022-10-03T07:45:53Z</time>
      </trkpt>
      <trkpt lat="45.23383" lon="5.6943">
        <ele>226.24582</ele>
        <time>2022-10-03T07:46:05Z</time>
      </trkpt>
      <trkpt lat="45.23354" lon="5.69436">
        <ele>224.02205</ele>
        <time>2022-10-03T07:46:15Z</time>
      </trkpt>
      <trkpt lat="45.2331" lon="5.69436">
        <ele>223.95372</ele>
        <time>2022-10-03T07:46:25Z</time>
      </trkpt>
      <trkpt lat="45.23278" lon="5.69435">
        <ele>221.07281</ele>
        <time>2022-10-03T07:46:35Z</time>
      </trkpt>
      <trkpt lat="45.23231" lon="5.69412">
        <ele>214.80106</ele>
        <time>2022-10-03T07:46:45Z</time>
      </trkpt>
      <trkpt lat="45.2317" lon="5.69405">
        <ele>213.5446</ele>
        <time>2022-10-03T07:46:55Z</time>
      </trkpt>
      <trkpt lat="45.23116" lon="5.6942">
        <ele>212.16197</ele>
        <time>2022-10-03T07:47:05Z</time>
      </trkpt>
      <trkpt lat="45.23058" lon="5.69412">
        <ele>212.90848</ele>
        <time>2022-10-03T07:47:15Z</time>
      </trkpt>
      <trkpt lat="45.2303" lon="5.6937">
        <ele>209.83833</ele>
        <time>2022-10-03T07:47:25Z</time>
      </trkpt>
      <trkpt lat="45.23022" lon="5.6934">
        <ele>208.38736</ele>
        <time>2022-10-03T07:47:35Z</time>
      </trkpt>
      <trkpt lat="45.22979" lon="5.69358">
        <ele>206.31078</ele>
        <time>2022-10-03T07:47:45Z</time>
      </trkpt>
      <trkpt lat="45.22914" lon="5.69363">
        <ele>204.01868</ele>
        <time>2022-10-03T07:47:55Z</time>
      </trkpt>
      <trkpt lat="45.22846" lon="5.69389">
        <ele>202.75171</ele>
        <time>2022-10-03T07:48:05Z</time>
      </trkpt>
      <trkpt lat="45.22784" lon="5.69418">
        <ele>200.92749</ele>
        <time>2022-10-03T07:48:15Z</time>
      </trkpt>
      <trkpt lat="45.2275" lon="5.69402">
        <ele>195.75974</ele>
        <time>2022-10-03T07:48:25Z</time>
      </trkpt>
      <trkpt lat="45.22704" lon="5.69363">
        <ele>189.82443</ele>
        <time>2022-10-03T07:48:35Z</time>
      </trkpt>
      <trkpt lat="45.22656" lon="5.69367">
        <ele>189.00957</ele>
        <time>2022-10-03T07:48:45Z</time>
      </trkpt>
      <trkpt lat="45.22596" lon="5.69397">
        <ele>188.05804</ele>
        <time>2022-10-03T07:48:55Z</time>
      </trkpt>
      <trkpt lat="45.2253" lon="5.69421">
        <ele>187.66376</ele>
        <time>2022-10-03T07:49:05Z</time>
      </trkpt>
      <trkpt lat="45.22469" lon="5.69441">
        <ele>187.44296</ele>
        <time>2022-10-03T07:49:15Z</time>
      </trkpt>
      <trkpt lat="45.22409" lon="5.69411">
        <ele>187.47975</ele>
        <time>2022-10-03T07:49:25Z</time>
      </trkpt>
      <trkpt lat="45.22346" lon="5.69388">
        <ele>188.01073</ele>
        <time>2022-10-03T07:49:35Z</time>
      </trkpt>
      <trkpt lat="45.22289" lon="5.69371">
        <ele>189.33026</ele>
        <time>2022-10-03T07:49:45Z</time>
      </trkpt>
      <trkpt lat="45.22232" lon="5.69367">
        <ele>189.62465</ele>
        <time>2022-10-03T07:49:55Z</time>
      </trkpt>
      <trkpt lat="45.22184" lon="5.69346">
        <ele>190.70238</ele>
        <time>2022-10-03T07:50:05Z</time>
      </trkpt>
      <trkpt lat="45.22126" lon="5.69321">
        <ele>190.14513</ele>
        <time>2022-10-03T07:50:15Z</time>
      </trkpt>
      <trkpt lat="45.22076" lon="5.69285">
        <ele>188.70992</ele>
        <time>2022-10-03T07:50:25Z</time>
      </trkpt>
      <trkpt lat="45.22054" lon="5.69214">
        <ele>187.6322</ele>
        <time>2022-10-03T07:50:35Z</time>
      </trkpt>
      <trkpt lat="45.22024" lon="5.69173">
        <ele>187.63747</ele>
        <time>2022-10-03T07:50:45Z</time>
      </trkpt>
      <trkpt lat="45.22012" lon="5.69158">
        <ele>188.11061</ele>
        <time>2022-10-03T07:53:05Z</time>
      </trkpt>
      <trkpt lat="45.21977" lon="5.69164">
        <ele>188.11061</ele>
        <time>2022-10-03T07:53:15Z</time>
      </trkpt>
      <trkpt lat="45.2193" lon="5.69208">
        <ele>188.14742</ele>
        <time>2022-10-03T07:53:25Z</time>
      </trkpt>
      <trkpt lat="45.21875" lon="5.69252">
        <ele>187.89505</ele>
        <time>2022-10-03T07:53:35Z</time>
      </trkpt>
      <trkpt lat="45.2182" lon="5.69301">
        <ele>188.0002</ele>
        <time>2022-10-03T07:53:45Z</time>
      </trkpt>
      <trkpt lat="45.21765" lon="5.69344">
        <ele>188.2473</ele>
        <time>2022-10-03T07:53:55Z</time>
      </trkpt>
      <trkpt lat="45.2171" lon="5.69393">
        <ele>188.26306</ele>
        <time>2022-10-03T07:54:05Z</time>
      </trkpt>
      <trkpt lat="45.21655" lon="5.69442">
        <ele>187.69003</ele>
        <time>2022-10-03T07:54:15Z</time>
      </trkpt>
      <trkpt lat="45.21598" lon="5.69494">
        <ele>187.61644</ele>
        <time>2022-10-03T07:54:25Z</time>
      </trkpt>
      <trkpt lat="45.21552" lon="5.69534">
        <ele>187.96341</ele>
        <time>2022-10-03T07:54:35Z</time>
      </trkpt>
      <trkpt lat="45.21543" lon="5.69543">
        <ele>188.15266</ele>
        <time>2022-10-03T07:54:45Z</time>
      </trkpt>
      <trkpt lat="45.21526" lon="5.69559">
        <ele>187.79518</ele>
        <time>2022-10-03T07:56:13Z</time>
      </trkpt>
      <trkpt lat="45.21492" lon="5.696">
        <ele>188.03174</ele>
        <time>2022-10-03T07:56:23Z</time>
      </trkpt>
      <trkpt lat="45.21478" lon="5.69618">
        <ele>188.16318</ele>
        <time>2022-10-03T07:56:33Z</time>
      </trkpt>
      <trkpt lat="45.21503" lon="5.69646">
        <ele>188.55222</ele>
        <time>2022-10-03T07:56:43Z</time>
      </trkpt>
      <trkpt lat="45.21533" lon="5.69667">
        <ele>192.21117</ele>
        <time>2022-10-03T07:56:53Z</time>
      </trkpt>
      <trkpt lat="45.21538" lon="5.69691">
        <ele>193.8514</ele>
        <time>2022-10-03T07:57:03Z</time>
      </trkpt>
      <trkpt lat="45.21521" lon="5.69724">
        <ele>194.5348</ele>
        <time>2022-10-03T07:57:13Z</time>
      </trkpt>
      <trkpt lat="45.21498" lon="5.69787">
        <ele>192.84203</ele>
        <time>2022-10-03T07:57:23Z</time>
      </trkpt>
      <trkpt lat="45.21455" lon="5.69862">
        <ele>189.75084</ele>
        <time>2022-10-03T07:57:33Z</time>
      </trkpt>
      <trkpt lat="45.21427" lon="5.69886">
        <ele>189.41963</ele>
        <time>2022-10-03T07:57:43Z</time>
      </trkpt>
      <trkpt lat="45.21431" lon="5.69886">
        <ele>189.55632</ele>
        <time>2022-10-03T07:58:01Z</time>
      </trkpt>
      <trkpt lat="45.21462" lon="5.6986">
        <ele>190.27655</ele>
        <time>2022-10-03T07:58:11Z</time>
      </trkpt>
      <trkpt lat="45.21459" lon="5.69886">
        <ele>193.05757</ele>
        <time>2022-10-03T07:58:21Z</time>
      </trkpt>
      <trkpt lat="45.21452" lon="5.69913">
        <ele>196.70076</ele>
        <time>2022-10-03T07:58:31Z</time>
      </trkpt>
      <trkpt lat="45.21442" lon="5.69935">
        <ele>200.58052</ele>
        <time>2022-10-03T07:58:41Z</time>
      </trkpt>
      <trkpt lat="45.21433" lon="5.69957">
        <ele>203.93982</ele>
        <time>2022-10-03T07:58:51Z</time>
      </trkpt>
      <trkpt lat="45.21418" lon="5.69976">
        <ele>205.89548</ele>
        <time>2022-10-03T07:59:01Z</time>
      </trkpt>
      <trkpt lat="45.21402" lon="5.69998">
        <ele>207.62508</ele>
        <time>2022-10-03T07:59:11Z</time>
      </trkpt>
      <trkpt lat="45.21389" lon="5.70021">
        <ele>210.06964</ele>
        <time>2022-10-03T07:59:21Z</time>
      </trkpt>
      <trkpt lat="45.21373" lon="5.70036">
        <ele>212.44586</ele>
        <time>2022-10-03T07:59:31Z</time>
      </trkpt>
      <trkpt lat="45.21354" lon="5.70048">
        <ele>214.61705</ele>
        <time>2022-10-03T07:59:41Z</time>
      </trkpt>
      <trkpt lat="45.21339" lon="5.70067">
        <ele>217.00378</ele>
        <time>2022-10-03T07:59:51Z</time>
      </trkpt>
      <trkpt lat="45.2133" lon="5.70091">
        <ele>219.4431</ele>
        <time>2022-10-03T08:00:01Z</time>
      </trkpt>
      <trkpt lat="45.21319" lon="5.70115">
        <ele>221.69841</ele>
        <time>2022-10-03T08:00:11Z</time>
      </trkpt>
      <trkpt lat="45.21309" lon="5.7014">
        <ele>224.29016</ele>
        <time>2022-10-03T08:00:21Z</time>
      </trkpt>
      <trkpt lat="45.21306" lon="5.70166">
        <ele>227.23943</ele>
        <time>2022-10-03T08:00:31Z</time>
      </trkpt>
      <trkpt lat="45.2131" lon="5.7019">
        <ele>229.89954</ele>
        <time>2022-10-03T08:00:41Z</time>
      </trkpt>
      <trkpt lat="45.21311" lon="5.70212">
        <ele>233.15369</ele>
        <time>2022-10-03T08:00:51Z</time>
      </trkpt>
      <trkpt lat="45.21295" lon="5.70227">
        <ele>236.19757</ele>
        <time>2022-10-03T08:01:01Z</time>
      </trkpt>
      <trkpt lat="45.21288" lon="5.70252">
        <ele>239.54637</ele>
        <time>2022-10-03T08:01:11Z</time>
      </trkpt>
      <trkpt lat="45.21283" lon="5.70278">
        <ele>243.89926</ele>
        <time>2022-10-03T08:01:21Z</time>
      </trkpt>
      <trkpt lat="45.21281" lon="5.70288">
        <ele>245.4659</ele>
        <time>2022-10-03T08:01:31Z</time>
      </trkpt>
      <trkpt lat="45.21278" lon="5.703">
        <ele>247.36897</ele>
        <time>2022-10-03T08:02:41Z</time>
      </trkpt>
      <trkpt lat="45.21283" lon="5.70309">
        <ele>249.39822</ele>
        <time>2022-10-03T08:02:53Z</time>
      </trkpt>
      <trkpt lat="45.21288" lon="5.7032">
        <ele>251.91638</ele>
        <time>2022-10-03T08:03:21Z</time>
      </trkpt>
      <trkpt lat="45.21296" lon="5.70331">
        <ele>255.03912</ele>
        <time>2022-10-03T08:03:41Z</time>
      </trkpt>
      <trkpt lat="45.21302" lon="5.70341">
        <ele>257.52048</ele>
        <time>2022-10-03T08:03:57Z</time>
      </trkpt>
      <trkpt lat="45.2131" lon="5.7035">
        <ele>259.48138</ele>
        <time>2022-10-03T08:04:25Z</time>
      </trkpt>
      <trkpt lat="45.21316" lon="5.70357">
        <ele>262.33078</ele>
        <time>2022-10-03T08:04:49Z</time>
      </trkpt>
      <trkpt lat="45.21327" lon="5.70362">
        <ele>265.02768</ele>
        <time>2022-10-03T08:05:05Z</time>
      </trkpt>
      <trkpt lat="45.2133" lon="5.70367">
        <ele>266.69943</ele>
        <time>2022-10-03T08:05:45Z</time>
      </trkpt>
      <trkpt lat="45.21341" lon="5.70372">
        <ele>269.3385</ele>
        <time>2022-10-03T08:06:01Z</time>
      </trkpt>
      <trkpt lat="45.21352" lon="5.70376">
        <ele>270.8368</ele>
        <time>2022-10-03T08:06:11Z</time>
      </trkpt>
      <trkpt lat="45.21358" lon="5.70382">
        <ele>272.43497</ele>
        <time>2022-10-03T08:06:21Z</time>
      </trkpt>
      <trkpt lat="45.21369" lon="5.70388">
        <ele>274.90057</ele>
        <time>2022-10-03T08:06:37Z</time>
      </trkpt>
      <trkpt lat="45.21373" lon="5.70397">
        <ele>276.83517</ele>
        <time>2022-10-03T08:07:17Z</time>
      </trkpt>
      <trkpt lat="45.21383" lon="5.70403">
        <ele>279.00638</ele>
        <time>2022-10-03T08:07:33Z</time>
      </trkpt>
      <trkpt lat="45.21396" lon="5.70407">
        <ele>281.0882</ele>
        <time>2022-10-03T08:07:49Z</time>
      </trkpt>
      <trkpt lat="45.21398" lon="5.7041">
        <ele>283.61688</ele>
        <time>2022-10-03T08:08:53Z</time>
      </trkpt>
      <trkpt lat="45.21407" lon="5.70411">
        <ele>284.87332</ele>
        <time>2022-10-03T08:09:03Z</time>
      </trkpt>
      <trkpt lat="45.2141" lon="5.7042">
        <ele>285.87744</ele>
        <time>2022-10-03T08:09:13Z</time>
      </trkpt>
      <trkpt lat="45.2142" lon="5.70416">
        <ele>287.9645</ele>
        <time>2022-10-03T08:09:29Z</time>
      </trkpt>
      <trkpt lat="45.21421" lon="5.70424">
        <ele>289.5995</ele>
        <time>2022-10-03T08:10:01Z</time>
      </trkpt>
      <trkpt lat="45.21433" lon="5.70425">
        <ele>291.27127</ele>
        <time>2022-10-03T08:10:11Z</time>
      </trkpt>
      <trkpt lat="45.21439" lon="5.70426">
        <ele>292.81158</ele>
        <time>2022-10-03T08:10:21Z</time>
      </trkpt>
      <trkpt lat="45.21448" lon="5.70428">
        <ele>294.63583</ele>
        <time>2022-10-03T08:10:37Z</time>
      </trkpt>
      <trkpt lat="45.21458" lon="5.70428">
        <ele>296.92792</ele>
        <time>2022-10-03T08:10:53Z</time>
      </trkpt>
      <trkpt lat="45.21468" lon="5.70426">
        <ele>299.14117</ele>
        <time>2022-10-03T08:11:09Z</time>
      </trkpt>
      <trkpt lat="45.21467" lon="5.7044">
        <ele>301.2493</ele>
        <time>2022-10-03T08:11:25Z</time>
      </trkpt>
      <trkpt lat="45.21462" lon="5.70449">
        <ele>301.74347</ele>
        <time>2022-10-03T08:15:05Z</time>
      </trkpt>
      <trkpt lat="45.21414" lon="5.70437">
        <ele>296.8701</ele>
        <time>2022-10-03T08:15:15Z</time>
      </trkpt>
      <trkpt lat="45.21349" lon="5.70408">
        <ele>290.54053</ele>
        <time>2022-10-03T08:15:25Z</time>
      </trkpt>
      <trkpt lat="45.21278" lon="5.70478">
        <ele>283.01755</ele>
        <time>2022-10-03T08:15:35Z</time>
      </trkpt>
      <trkpt lat="45.21194" lon="5.70535">
        <ele>276.74582</ele>
        <time>2022-10-03T08:15:45Z</time>
      </trkpt>
      <trkpt lat="45.21111" lon="5.70572">
        <ele>268.6551</ele>
        <time>2022-10-03T08:15:55Z</time>
      </trkpt>
      <trkpt lat="45.21054" lon="5.70609">
        <ele>265.27475</ele>
        <time>2022-10-03T08:16:05Z</time>
      </trkpt>
      <trkpt lat="45.21032" lon="5.70635">
        <ele>267.94537</ele>
        <time>2022-10-03T08:16:15Z</time>
      </trkpt>
      <trkpt lat="45.21018" lon="5.70662">
        <ele>270.2953</ele>
        <time>2022-10-03T08:16:25Z</time>
      </trkpt>
      <trkpt lat="45.21005" lon="5.70686">
        <ele>272.55588</ele>
        <time>2022-10-03T08:16:35Z</time>
      </trkpt>
      <trkpt lat="45.20998" lon="5.70722">
        <ele>274.75336</ele>
        <time>2022-10-03T08:16:45Z</time>
      </trkpt>
      <trkpt lat="45.20992" lon="5.70752">
        <ele>277.14536</ele>
        <time>2022-10-03T08:16:55Z</time>
      </trkpt>
      <trkpt lat="45.20998" lon="5.70781">
        <ele>279.34283</ele>
        <time>2022-10-03T08:17:05Z</time>
      </trkpt>
      <trkpt lat="45.21" lon="5.70812">
        <ele>281.28796</ele>
        <time>2022-10-03T08:17:15Z</time>
      </trkpt>
      <trkpt lat="45.20998" lon="5.70846">
        <ele>283.3067</ele>
        <time>2022-10-03T08:17:25Z</time>
      </trkpt>
      <trkpt lat="45.20985" lon="5.70868">
        <ele>285.6882</ele>
        <time>2022-10-03T08:17:35Z</time>
      </trkpt>
      <trkpt lat="45.20979" lon="5.70894">
        <ele>287.4283</ele>
        <time>2022-10-03T08:17:45Z</time>
      </trkpt>
      <trkpt lat="45.20981" lon="5.70927">
        <ele>289.2052</ele>
        <time>2022-10-03T08:17:55Z</time>
      </trkpt>
      <trkpt lat="45.20977" lon="5.70957">
        <ele>291.10828</ele>
        <time>2022-10-03T08:18:05Z</time>
      </trkpt>
      <trkpt lat="45.20968" lon="5.7098">
        <ele>293.31628</ele>
        <time>2022-10-03T08:18:15Z</time>
      </trkpt>
      <trkpt lat="45.20963" lon="5.7102">
        <ele>294.9723</ele>
        <time>2022-10-03T08:18:25Z</time>
      </trkpt>
      <trkpt lat="45.2096" lon="5.71049">
        <ele>295.12473</ele>
        <time>2022-10-03T08:18:35Z</time>
      </trkpt>
      <trkpt lat="45.20963" lon="5.71057">
        <ele>295.01434</ele>
        <time>2022-10-03T08:19:18Z</time>
      </trkpt>
      <trkpt lat="45.20968" lon="5.71084">
        <ele>295.0564</ele>
        <time>2022-10-03T08:19:28Z</time>
      </trkpt>
      <trkpt lat="45.20983" lon="5.7111">
        <ele>295.0669</ele>
        <time>2022-10-03T08:19:38Z</time>
      </trkpt>
      <trkpt lat="45.21005" lon="5.71156">
        <ele>294.26782</ele>
        <time>2022-10-03T08:19:48Z</time>
      </trkpt>
      <trkpt lat="45.21037" lon="5.71221">
        <ele>290.30392</ele>
        <time>2022-10-03T08:19:58Z</time>
      </trkpt>
      <trkpt lat="45.21069" lon="5.71293">
        <ele>284.9785</ele>
        <time>2022-10-03T08:20:08Z</time>
      </trkpt>
      <trkpt lat="45.2115" lon="5.71367">
        <ele>276.69324</ele>
        <time>2022-10-03T08:20:18Z</time>
      </trkpt>
      <trkpt lat="45.21202" lon="5.7144">
        <ele>270.0167</ele>
        <time>2022-10-03T08:20:28Z</time>
      </trkpt>
      <trkpt lat="45.21168" lon="5.71445">
        <ele>268.31863</ele>
        <time>2022-10-03T08:20:38Z</time>
      </trkpt>
      <trkpt lat="45.21106" lon="5.71429">
        <ele>264.6071</ele>
        <time>2022-10-03T08:20:48Z</time>
      </trkpt>
      <trkpt lat="45.2103" lon="5.71407">
        <ele>259.61807</ele>
        <time>2022-10-03T08:20:58Z</time>
      </trkpt>
      <trkpt lat="45.20967" lon="5.71377">
        <ele>257.72028</ele>
        <time>2022-10-03T08:21:08Z</time>
      </trkpt>
      <trkpt lat="45.209" lon="5.7133">
        <ele>252.49992</ele>
        <time>2022-10-03T08:21:18Z</time>
      </trkpt>
      <trkpt lat="45.20819" lon="5.71325">
        <ele>245.79184</ele>
        <time>2022-10-03T08:21:28Z</time>
      </trkpt>
      <trkpt lat="45.20725" lon="5.71297">
        <ele>240.38751</ele>
        <time>2022-10-03T08:21:38Z</time>
      </trkpt>
      <trkpt lat="45.20654" lon="5.71267">
        <ele>237.22797</ele>
        <time>2022-10-03T08:21:48Z</time>
      </trkpt>
      <trkpt lat="45.20577" lon="5.71255">
        <ele>233.40602</ele>
        <time>2022-10-03T08:21:58Z</time>
      </trkpt>
      <trkpt lat="45.2053" lon="5.71309">
        <ele>234.42065</ele>
        <time>2022-10-03T08:22:08Z</time>
      </trkpt>
      <trkpt lat="45.20506" lon="5.71365">
        <ele>237.44351</ele>
        <time>2022-10-03T08:22:18Z</time>
      </trkpt>
      <trkpt lat="45.20491" lon="5.71413">
        <ele>239.75139</ele>
        <time>2022-10-03T08:22:28Z</time>
      </trkpt>
      <trkpt lat="45.20486" lon="5.71446">
        <ele>242.08029</ele>
        <time>2022-10-03T08:22:38Z</time>
      </trkpt>
      <trkpt lat="45.20476" lon="5.71482">
        <ele>243.60486</ele>
        <time>2022-10-03T08:22:48Z</time>
      </trkpt>
      <trkpt lat="45.20469" lon="5.71522">
        <ele>245.81285</ele>
        <time>2022-10-03T08:22:58Z</time>
      </trkpt>
      <trkpt lat="45.20438" lon="5.71569">
        <ele>243.74155</ele>
        <time>2022-10-03T08:23:08Z</time>
      </trkpt>
      <trkpt lat="45.20413" lon="5.71589">
        <ele>241.76488</ele>
        <time>2022-10-03T08:23:18Z</time>
      </trkpt>
      <trkpt lat="45.20384" lon="5.71635">
        <ele>239.97218</ele>
        <time>2022-10-03T08:23:28Z</time>
      </trkpt>
      <trkpt lat="45.20356" lon="5.71708">
        <ele>238.83665</ele>
        <time>2022-10-03T08:23:38Z</time>
      </trkpt>
      <trkpt lat="45.20343" lon="5.71751">
        <ele>241.7859</ele>
        <time>2022-10-03T08:23:48Z</time>
      </trkpt>
      <trkpt lat="45.20332" lon="5.71778">
        <ele>244.61423</ele>
        <time>2022-10-03T08:23:58Z</time>
      </trkpt>
      <trkpt lat="45.20318" lon="5.71806">
        <ele>247.01674</ele>
        <time>2022-10-03T08:24:08Z</time>
      </trkpt>
      <trkpt lat="45.20305" lon="5.71831">
        <ele>249.83981</ele>
        <time>2022-10-03T08:24:18Z</time>
      </trkpt>
      <trkpt lat="45.20285" lon="5.71844">
        <ele>252.05307</ele>
        <time>2022-10-03T08:24:28Z</time>
      </trkpt>
      <trkpt lat="45.20263" lon="5.71855">
        <ele>254.0981</ele>
        <time>2022-10-03T08:24:38Z</time>
      </trkpt>
      <trkpt lat="45.20241" lon="5.7187">
        <ele>255.45969</ele>
        <time>2022-10-03T08:24:48Z</time>
      </trkpt>
      <trkpt lat="45.20217" lon="5.71887">
        <ele>255.52805</ele>
        <time>2022-10-03T08:24:58Z</time>
      </trkpt>
      <trkpt lat="45.20174" lon="5.7193">
        <ele>253.2885</ele>
        <time>2022-10-03T08:25:08Z</time>
      </trkpt>
      <trkpt lat="45.20125" lon="5.71971">
        <ele>252.1109</ele>
        <time>2022-10-03T08:25:18Z</time>
      </trkpt>
      <trkpt lat="45.20056" lon="5.71972">
        <ele>247.13765</ele>
        <time>2022-10-03T08:25:28Z</time>
      </trkpt>
      <trkpt lat="45.19979" lon="5.71959">
        <ele>243.20532</ele>
        <time>2022-10-03T08:25:38Z</time>
      </trkpt>
      <trkpt lat="45.19944" lon="5.71959">
        <ele>242.52191</ele>
        <time>2022-10-03T08:25:48Z</time>
      </trkpt>
      <trkpt lat="45.19869" lon="5.71941">
        <ele>235.1514</ele>
        <time>2022-10-03T08:25:58Z</time>
      </trkpt>
      <trkpt lat="45.19754" lon="5.71958">
        <ele>222.74457</ele>
        <time>2022-10-03T08:26:08Z</time>
      </trkpt>
      <trkpt lat="45.19666" lon="5.71973">
        <ele>213.20815</ele>
        <time>2022-10-03T08:26:18Z</time>
      </trkpt>
      <trkpt lat="45.19691" lon="5.71903">
        <ele>205.77457</ele>
        <time>2022-10-03T08:26:28Z</time>
      </trkpt>
      <trkpt lat="45.1968" lon="5.71894">
        <ele>200.23882</ele>
        <time>2022-10-03T08:26:38Z</time>
      </trkpt>
      <trkpt lat="45.19631" lon="5.71891">
        <ele>194.02487</ele>
        <time>2022-10-03T08:26:48Z</time>
      </trkpt>
      <trkpt lat="45.19602" lon="5.71888">
        <ele>193.68317</ele>
        <time>2022-10-03T08:26:58Z</time>
      </trkpt>
      <trkpt lat="45.19555" lon="5.719">
        <ele>193.81985</ele>
        <time>2022-10-03T08:27:08Z</time>
      </trkpt>
      <trkpt lat="45.19505" lon="5.71903">
        <ele>193.6043</ele>
        <time>2022-10-03T08:27:18Z</time>
      </trkpt>
      <trkpt lat="45.19445" lon="5.71907">
        <ele>193.43608</ele>
        <time>2022-10-03T08:27:28Z</time>
      </trkpt>
      <trkpt lat="45.19432" lon="5.71884">
        <ele>193.0418</ele>
        <time>2022-10-03T08:27:38Z</time>
      </trkpt>
      <trkpt lat="45.19425" lon="5.71861">
        <ele>193.15219</ele>
        <time>2022-10-03T08:27:48Z</time>
      </trkpt>
      <trkpt lat="45.19415" lon="5.71814">
        <ele>193.19426</ele>
        <time>2022-10-03T08:27:58Z</time>
      </trkpt>
      <trkpt lat="45.1941" lon="5.71782">
        <ele>193.25208</ele>
        <time>2022-10-03T08:28:08Z</time>
      </trkpt>
      <trkpt lat="45.19401" lon="5.71785">
        <ele>193.43608</ele>
        <time>2022-10-03T08:28:18Z</time>
      </trkpt>
      <trkpt lat="45.19392" lon="5.71789">
        <ele>193.64111</ele>
        <time>2022-10-03T08:28:46Z</time>
      </trkpt>
      <trkpt lat="45.1936" lon="5.71828">
        <ele>193.8514</ele>
        <time>2022-10-03T08:28:56Z</time>
      </trkpt>
      <trkpt lat="45.19344" lon="5.71889">
        <ele>194.73459</ele>
        <time>2022-10-03T08:29:06Z</time>
      </trkpt>
      <trkpt lat="45.19327" lon="5.71943">
        <ele>195.21298</ele>
        <time>2022-10-03T08:29:16Z</time>
      </trkpt>
      <trkpt lat="45.19331" lon="5.71962">
        <ele>195.27081</ele>
        <time>2022-10-03T08:29:26Z</time>
      </trkpt>
      <trkpt lat="45.19332" lon="5.71993">
        <ele>195.24979</ele>
        <time>2022-10-03T08:30:14Z</time>
      </trkpt>
      <trkpt lat="45.19335" lon="5.72055">
        <ele>196.08566</ele>
        <time>2022-10-03T08:30:24Z</time>
        <extensions>
          <gpxtpx:TrackPointExtension xmlns:gpxtpx="http://www.garmin.com/xmlschemas/TrackPointExtension/v1">
            <gpxtpx:hr>100</gpxtpx:hr>
          </gpxtpx:TrackPointExtension>
        </extensions>
      </trkpt>
      <trkpt lat="45.19339" lon="5.72126">
        <ele>196.63242</ele>
        <time>2022-10-03T08:30:34Z</time>
      </trkpt>
      <trkpt lat="45.19342" lon="5.72199">
        <ele>197.41573</ele>
        <time>2022-10-03T08:30:44Z</time>
      </trkpt>
      <trkpt lat="45.19347" lon="5.72278">
        <ele>197.64178</ele>
        <time>2022-10-03T08:30:54Z</time>
      </trkpt>
      <trkpt lat="45.19353" lon="5.7236">
        <ele>196.7323</ele>
        <time>2022-10-03T08:31:04Z</time>
      </trkpt>
      <trkpt lat="45.19359" lon="5.72421">
        <ele>195.78601</ele>
        <time>2022-10-03T08:31:14Z</time>
      </trkpt>
      <trkpt lat="45.19379" lon="5.72505">
        <ele>193.69893</ele>
        <time>2022-10-03T08:31:24Z</time>
        <extensions>
          <gpxtpx:TrackPointExtension xmlns:gpxtpx="http://www.garmin.com/xmlschemas/TrackPointExtension/v1">
            <gpxtpx:hr>109</gpxtpx:hr>
          </gpxtpx:TrackPointExtension>
        </extensions>
      </trkpt>
      <trkpt lat="45.19393" lon="5.72597">
        <ele>191.69597</ele>
        <time>2022-10-03T08:31:34Z</time>
      </trkpt>
      <trkpt lat="45.19412" lon="5.72679">
        <ele>192.00615</ele>
        <time>2022-10-03T08:31:44Z</time>
      </trkpt>
      <trkpt lat="45.19428" lon="5.72756">
        <ele>193.80408</ele>
        <time>2022-10-03T08:31:54Z</time>
      </trkpt>
      <trkpt lat="45.19448" lon="5.72825">
        <ele>194.87654</ele>
        <time>2022-10-03T08:32:04Z</time>
      </trkpt>
      <trkpt lat="45.19472" lon="5.72888">
        <ele>195.50214</ele>
        <time>2022-10-03T08:32:14Z</time>
      </trkpt>
      <trkpt lat="45.19509" lon="5.72944">
        <ele>196.0068</ele>
        <time>2022-10-03T08:32:24Z</time>
        <extensions>
          <gpxtpx:TrackPointExtension xmlns:gpxtpx="http://www.garmin.com/xmlschemas/TrackPointExtension/v1">
            <gpxtpx:hr>111</gpxtpx:hr>
          </gpxtpx:TrackPointExtension>
        </extensions>
      </trkpt>
      <trkpt lat="45.19545" lon="5.73001">
        <ele>196.91104</ele>
        <time>2022-10-03T08:32:34Z</time>
      </trkpt>
      <trkpt lat="45.19585" lon="5.73065">
        <ele>196.21185</ele>
        <time>2022-10-03T08:32:44Z</time>
      </trkpt>
      <trkpt lat="45.1963" lon="5.73133">
        <ele>195.61778</ele>
        <time>2022-10-03T08:32:54Z</time>
      </trkpt>
      <trkpt lat="45.19682" lon="5.73188">
        <ele>194.75037</ele>
        <time>2022-10-03T08:33:04Z</time>
      </trkpt>
      <trkpt lat="45.19729" lon="5.73228">
        <ele>195.46008</ele>
        <time>2022-10-03T08:33:14Z</time>
      </trkpt>
      <trkpt lat="45.19744" lon="5.73238">
        <ele>195.9227</ele>
        <time>2022-10-03T08:33:42Z</time>
      </trkpt>
      <trkpt lat="45.19787" lon="5.73262">
        <ele>195.55995</ele>
        <time>2022-10-03T08:33:52Z</time>
      </trkpt>
      <trkpt lat="45.19845" lon="5.73278">
        <ele>195.58624</ele>
        <time>2022-10-03T08:34:02Z</time>
      </trkpt>
      <trkpt lat="45.19901" lon="5.73299">
        <ele>196.19608</ele>
        <time>2022-10-03T08:34:12Z</time>
      </trkpt>
      <trkpt lat="45.19965" lon="5.73328">
        <ele>195.9595</ele>
        <time>2022-10-03T08:34:22Z</time>
      </trkpt>
      <trkpt lat="45.20033" lon="5.73357">
        <ele>195.0027</ele>
        <time>2022-10-03T08:34:32Z</time>
      </trkpt>
      <trkpt lat="45.20092" lon="5.73389">
        <ele>194.75563</ele>
        <time>2022-10-03T08:34:42Z</time>
      </trkpt>
      <trkpt lat="45.2013" lon="5.73433">
        <ele>193.46237</ele>
        <time>2022-10-03T08:34:52Z</time>
      </trkpt>
      <trkpt lat="45.20151" lon="5.73468">
        <ele>192.8683</ele>
        <time>2022-10-03T08:35:02Z</time>
      </trkpt>
      <trkpt lat="45.20183" lon="5.73517">
        <ele>193.53596</ele>
        <time>2022-10-03T08:35:12Z</time>
      </trkpt>
      <trkpt lat="45.20184" lon="5.73524">
        <ele>193.67265</ele>
        <time>2022-10-03T08:35:22Z</time>
      </trkpt>
      <trkpt lat="45.20195" lon="5.73533">
        <ele>193.66212</ele>
        <time>2022-10-03T08:37:18Z</time>
      </trkpt>
      <trkpt lat="45.20213" lon="5.73561">
        <ele>194.04591</ele>
        <time>2022-10-03T08:37:28Z</time>
      </trkpt>
      <trkpt lat="45.20234" lon="5.73609">
        <ele>193.72522</ele>
        <time>2022-10-03T08:37:38Z</time>
      </trkpt>
      <trkpt lat="45.20251" lon="5.7368">
        <ele>194.35083</ele>
        <time>2022-10-03T08:37:48Z</time>
      </trkpt>
      <trkpt lat="45.20259" lon="5.73761">
        <ele>194.24568</ele>
        <time>2022-10-03T08:37:58Z</time>
      </trkpt>
      <trkpt lat="45.20248" lon="5.7384">
        <ele>194.3666</ele>
        <time>2022-10-03T08:38:08Z</time>
      </trkpt>
      <trkpt lat="45.20229" lon="5.73921">
        <ele>194.46121</ele>
        <time>2022-10-03T08:38:18Z</time>
      </trkpt>
      <trkpt lat="45.20203" lon="5.73999">
        <ele>194.48225</ele>
        <time>2022-10-03T08:38:28Z</time>
      </trkpt>
      <trkpt lat="45.20165" lon="5.74071">
        <ele>195.03424</ele>
        <time>2022-10-03T08:38:38Z</time>
      </trkpt>
      <trkpt lat="45.20131" lon="5.7413">
        <ele>197.56818</ele>
        <time>2022-10-03T08:38:48Z</time>
      </trkpt>
      <trkpt lat="45.20117" lon="5.74163">
        <ele>199.37663</ele>
        <time>2022-10-03T08:38:58Z</time>
      </trkpt>
      <trkpt lat="45.20109" lon="5.7418">
        <ele>200.0916</ele>
        <time>2022-10-03T08:40:18Z</time>
      </trkpt>
      <trkpt lat="45.20072" lon="5.74215">
        <ele>198.15173</ele>
        <time>2022-10-03T08:40:28Z</time>
      </trkpt>
      <trkpt lat="45.20016" lon="5.74251">
        <ele>196.0699</ele>
        <time>2022-10-03T08:40:38Z</time>
      </trkpt>
      <trkpt lat="45.19968" lon="5.7429">
        <ele>196.11722</ele>
        <time>2022-10-03T08:40:48Z</time>
      </trkpt>
      <trkpt lat="45.19914" lon="5.74326">
        <ele>196.08566</ele>
        <time>2022-10-03T08:40:58Z</time>
      </trkpt>
      <trkpt lat="45.19854" lon="5.74357">
        <ele>195.74396</ele>
        <time>2022-10-03T08:41:08Z</time>
      </trkpt>
      <trkpt lat="45.19811" lon="5.74405">
        <ele>194.86601</ele>
        <time>2022-10-03T08:41:18Z</time>
      </trkpt>
      <trkpt lat="45.19761" lon="5.74413">
        <ele>194.48752</ele>
        <time>2022-10-03T08:41:28Z</time>
      </trkpt>
      <trkpt lat="45.19705" lon="5.74414">
        <ele>194.19836</ele>
        <time>2022-10-03T08:41:38Z</time>
      </trkpt>
      <trkpt lat="45.1965" lon="5.74408">
        <ele>194.69254</ele>
        <time>2022-10-03T08:41:48Z</time>
      </trkpt>
      <trkpt lat="45.19616" lon="5.74405">
        <ele>194.70305</ele>
        <time>2022-10-03T08:41:58Z</time>
      </trkpt>
      <trkpt lat="45.19629" lon="5.74406">
        <ele>194.58739</ele>
        <time>2022-10-03T08:43:26Z</time>
      </trkpt>
      <trkpt lat="45.19658" lon="5.7441">
        <ele>194.70831</ele>
        <time>2022-10-03T08:43:36Z</time>
      </trkpt>
      <trkpt lat="45.19646" lon="5.74462">
        <ele>193.91449</ele>
        <time>2022-10-03T08:43:46Z</time>
      </trkpt>
      <trkpt lat="45.19626" lon="5.74533">
        <ele>194.22464</ele>
        <time>2022-10-03T08:43:56Z</time>
      </trkpt>
      <trkpt lat="45.19607" lon="5.74599">
        <ele>194.5348</ele>
        <time>2022-10-03T08:44:06Z</time>
      </trkpt>
      <trkpt lat="45.19591" lon="5.74644">
        <ele>194.73459</ele>
        <time>2022-10-03T08:44:16Z</time>
      </trkpt>
      <trkpt lat="45.19577" lon="5.74705">
        <ele>194.60316</ele>
        <time>2022-10-03T08:44:26Z</time>
      </trkpt>
      <trkpt lat="45.19566" lon="5.74742">
        <ele>194.72932</ele>
        <time>2022-10-03T08:44:36Z</time>
      </trkpt>
      <trkpt lat="45.19537" lon="5.74728">
        <ele>194.90282</ele>
        <time>2022-10-03T08:44:46Z</time>
      </trkpt>
      <trkpt lat="45.19498" lon="5.7472">
        <ele>194.93436</ele>
        <time>2022-10-03T08:44:56Z</time>
      </trkpt>
      <trkpt lat="45.19449" lon="5.74687">
        <ele>194.83447</ele>
        <time>2022-10-03T08:45:06Z</time>
      </trkpt>
      <trkpt lat="45.19395" lon="5.7465">
        <ele>194.95538</ele>
        <time>2022-10-03T08:45:16Z</time>
      </trkpt>
      <trkpt lat="45.19344" lon="5.74601">
        <ele>195.04475</ele>
        <time>2022-10-03T08:45:26Z</time>
      </trkpt>
      <trkpt lat="45.19286" lon="5.74558">
        <ele>194.92384</ele>
        <time>2022-10-03T08:45:36Z</time>
      </trkpt>
      <trkpt lat="45.19228" lon="5.74517">
        <ele>194.95013</ele>
        <time>2022-10-03T08:45:46Z</time>
      </trkpt>
      <trkpt lat="45.1919" lon="5.74444">
        <ele>195.09207</ele>
        <time>2022-10-03T08:45:56Z</time>
      </trkpt>
      <trkpt lat="45.19178" lon="5.74354">
        <ele>195.89116</ele>
        <time>2022-10-03T08:46:06Z</time>
      </trkpt>
      <trkpt lat="45.19171" lon="5.74276">
        <ele>198.73528</ele>
        <time>2022-10-03T08:46:16Z</time>
      </trkpt>
      <trkpt lat="45.19168" lon="5.74207">
        <ele>199.72887</ele>
        <time>2022-10-03T08:46:26Z</time>
      </trkpt>
      <trkpt lat="45.19166" lon="5.74128">
        <ele>198.74051</ele>
        <time>2022-10-03T08:46:36Z</time>
      </trkpt>
      <trkpt lat="45.19165" lon="5.74084">
        <ele>197.95721</ele>
        <time>2022-10-03T08:46:46Z</time>
      </trkpt>
      <trkpt lat="45.19154" lon="5.74108">
        <ele>198.41458</ele>
        <time>2022-10-03T08:46:56Z</time>
      </trkpt>
      <trkpt lat="45.19153" lon="5.74145">
        <ele>199.48178</ele>
        <time>2022-10-03T08:47:06Z</time>
      </trkpt>
      <trkpt lat="45.19158" lon="5.74207">
        <ele>199.87607</ele>
        <time>2022-10-03T08:47:16Z</time>
      </trkpt>
      <trkpt lat="45.19165" lon="5.74271">
        <ele>198.74577</ele>
        <time>2022-10-03T08:47:26Z</time>
      </trkpt>
      <trkpt lat="45.19164" lon="5.74285">
        <ele>198.38304</ele>
        <time>2022-10-03T08:47:36Z</time>
      </trkpt>
      <trkpt lat="45.19156" lon="5.74267">
        <ele>196.57458</ele>
        <time>2022-10-03T08:47:50Z</time>
      </trkpt>
      <trkpt lat="45.19124" lon="5.74271">
        <ele>196.67447</ele>
        <time>2022-10-03T08:48:00Z</time>
      </trkpt>
      <trkpt lat="45.19078" lon="5.74289">
        <ele>196.5851</ele>
        <time>2022-10-03T08:48:10Z</time>
      </trkpt>
      <trkpt lat="45.19034" lon="5.74339">
        <ele>195.5915</ele>
        <time>2022-10-03T08:48:20Z</time>
      </trkpt>
      <trkpt lat="45.18995" lon="5.74429">
        <ele>195.39699</ele>
        <time>2022-10-03T08:48:34Z</time>
      </trkpt>
      <trkpt lat="45.18982" lon="5.74468">
        <ele>195.44955</ele>
        <time>2022-10-03T08:48:44Z</time>
      </trkpt>
      <trkpt lat="45.18987" lon="5.74494">
        <ele>195.5179</ele>
        <time>2022-10-03T08:48:54Z</time>
      </trkpt>
      <trkpt lat="45.19004" lon="5.74445">
        <ele>195.75974</ele>
        <time>2022-10-03T08:49:04Z</time>
      </trkpt>
      <trkpt lat="45.19015" lon="5.74382">
        <ele>195.78075</ele>
        <time>2022-10-03T08:49:14Z</time>
      </trkpt>
      <trkpt lat="45.19061" lon="5.74312">
        <ele>196.26967</ele>
        <time>2022-10-03T08:49:27Z</time>
      </trkpt>
      <trkpt lat="45.19111" lon="5.74281">
        <ele>195.87012</ele>
        <time>2022-10-03T08:49:37Z</time>
      </trkpt>
      <trkpt lat="45.19149" lon="5.74348">
        <ele>196.06465</ele>
        <time>2022-10-03T08:49:47Z</time>
      </trkpt>
      <trkpt lat="45.19172" lon="5.74373">
        <ele>196.00156</ele>
        <time>2022-10-03T08:49:57Z</time>
      </trkpt>
      <trkpt lat="45.19178" lon="5.74315">
        <ele>197.53139</ele>
        <time>2022-10-03T08:50:07Z</time>
      </trkpt>
      <trkpt lat="45.19173" lon="5.74259">
        <ele>199.41869</ele>
        <time>2022-10-03T08:50:17Z</time>
      </trkpt>
      <trkpt lat="45.19167" lon="5.74183">
        <ele>200.03903</ele>
        <time>2022-10-03T08:50:27Z</time>
      </trkpt>
      <trkpt lat="45.19162" lon="5.74115">
        <ele>199.0612</ele>
        <time>2022-10-03T08:50:37Z</time>
      </trkpt>
      <trkpt lat="45.19151" lon="5.74104">
        <ele>198.31995</ele>
        <time>2022-10-03T08:50:47Z</time>
      </trkpt>
      <trkpt lat="45.19106" lon="5.74135">
        <ele>197.9835</ele>
        <time>2022-10-03T08:50:57Z</time>
      </trkpt>
      <trkpt lat="45.19044" lon="5.74167">
        <ele>197.76268</ele>
        <time>2022-10-03T08:51:07Z</time>
      </trkpt>
      <trkpt lat="45.18984" lon="5.74208">
        <ele>197.68909</ele>
        <time>2022-10-03T08:51:17Z</time>
      </trkpt>
      <trkpt lat="45.18932" lon="5.74286">
        <ele>197.81</ele>
        <time>2022-10-03T08:51:29Z</time>
      </trkpt>
      <trkpt lat="45.18898" lon="5.74362">
        <ele>198.2043</ele>
        <time>2022-10-03T08:51:39Z</time>
      </trkpt>
      <trkpt lat="45.18874" lon="5.74447">
        <ele>197.85732</ele>
        <time>2022-10-03T08:51:49Z</time>
      </trkpt>
      <trkpt lat="45.18852" lon="5.74526">
        <ele>198.73528</ele>
        <time>2022-10-03T08:51:59Z</time>
      </trkpt>
      <trkpt lat="45.18843" lon="5.74615">
        <ele>199.08224</ele>
        <time>2022-10-03T08:52:09Z</time>
      </trkpt>
      <trkpt lat="45.18835" lon="5.74695">
        <ele>198.79836</ele>
        <time>2022-10-03T08:52:19Z</time>
      </trkpt>
      <trkpt lat="45.18831" lon="5.74782">
        <ele>198.14647</ele>
        <time>2022-10-03T08:52:29Z</time>
      </trkpt>
      <trkpt lat="45.18832" lon="5.74865">
        <ele>198.19904</ele>
        <time>2022-10-03T08:52:39Z</time>
      </trkpt>
      <trkpt lat="45.18849" lon="5.7496">
        <ele>198.35675</ele>
        <time>2022-10-03T08:52:49Z</time>
      </trkpt>
      <trkpt lat="45.18881" lon="5.75045">
        <ele>198.3988</ele>
        <time>2022-10-03T08:52:59Z</time>
      </trkpt>
      <trkpt lat="45.18926" lon="5.7511">
        <ele>198.25687</ele>
        <time>2022-10-03T08:53:09Z</time>
      </trkpt>
      <trkpt lat="45.18979" lon="5.75164">
        <ele>198.43561</ele>
        <time>2022-10-03T08:53:19Z</time>
      </trkpt>
      <trkpt lat="45.19038" lon="5.75199">
        <ele>198.73001</ele>
        <time>2022-10-03T08:53:29Z</time>
      </trkpt>
      <trkpt lat="45.19099" lon="5.75226">
        <ele>198.71423</ele>
        <time>2022-10-03T08:53:39Z</time>
      </trkpt>
      <trkpt lat="45.1916" lon="5.75258">
        <ele>198.45663</ele>
        <time>2022-10-03T08:53:49Z</time>
      </trkpt>
      <trkpt lat="45.19222" lon="5.75288">
        <ele>198.61435</ele>
        <time>2022-10-03T08:53:59Z</time>
      </trkpt>
      <trkpt lat="45.19286" lon="5.75308">
        <ele>198.43561</ele>
        <time>2022-10-03T08:54:09Z</time>
      </trkpt>
      <trkpt lat="45.19349" lon="5.75324">
        <ele>198.77733</ele>
        <time>2022-10-03T08:54:19Z</time>
      </trkpt>
      <trkpt lat="45.19413" lon="5.7534">
        <ele>198.77206</ele>
        <time>2022-10-03T08:54:29Z</time>
      </trkpt>
      <trkpt lat="45.19474" lon="5.75362">
        <ele>198.76682</ele>
        <time>2022-10-03T08:54:39Z</time>
      </trkpt>
      <trkpt lat="45.1954" lon="5.75392">
        <ele>198.82465</ele>
        <time>2022-10-03T08:54:49Z</time>
      </trkpt>
      <trkpt lat="45.19597" lon="5.75442">
        <ele>197.49983</ele>
        <time>2022-10-03T08:54:59Z</time>
      </trkpt>
      <trkpt lat="45.19647" lon="5.75465">
        <ele>198.91402</ele>
        <time>2022-10-03T08:55:09Z</time>
      </trkpt>
      <trkpt lat="45.1968" lon="5.75526">
        <ele>199.01915</ele>
        <time>2022-10-03T08:55:19Z</time>
      </trkpt>
      <trkpt lat="45.19684" lon="5.75615">
        <ele>199.07172</ele>
        <time>2022-10-03T08:55:29Z</time>
      </trkpt>
      <trkpt lat="45.19661" lon="5.75694">
        <ele>198.91925</ele>
        <time>2022-10-03T08:55:39Z</time>
      </trkpt>
      <trkpt lat="45.19624" lon="5.75772">
        <ele>198.98235</ele>
        <time>2022-10-03T08:55:49Z</time>
      </trkpt>
      <trkpt lat="45.19589" lon="5.75851">
        <ele>199.13481</ele>
        <time>2022-10-03T08:55:59Z</time>
      </trkpt>
      <trkpt lat="45.19569" lon="5.75938">
        <ele>198.96657</ele>
        <time>2022-10-03T08:56:09Z</time>
      </trkpt>
      <trkpt lat="45.19551" lon="5.76031">
        <ele>199.01915</ele>
        <time>2022-10-03T08:56:19Z</time>
      </trkpt>
      <trkpt lat="45.19543" lon="5.76121">
        <ele>198.98761</ele>
        <time>2022-10-03T08:56:29Z</time>
      </trkpt>
      <trkpt lat="45.19539" lon="5.76213">
        <ele>199.38715</ele>
        <time>2022-10-03T08:56:39Z</time>
      </trkpt>
      <trkpt lat="45.19544" lon="5.76301">
        <ele>199.39767</ele>
        <time>2022-10-03T08:56:49Z</time>
      </trkpt>
      <trkpt lat="45.19553" lon="5.76392">
        <ele>199.30304</ele>
        <time>2022-10-03T08:56:59Z</time>
      </trkpt>
      <trkpt lat="45.19567" lon="5.76479">
        <ele>199.466</ele>
        <time>2022-10-03T08:57:09Z</time>
      </trkpt>
      <trkpt lat="45.19588" lon="5.76563">
        <ele>199.68155</ele>
        <time>2022-10-03T08:57:19Z</time>
      </trkpt>
      <trkpt lat="45.19624" lon="5.76645">
        <ele>199.45023</ele>
        <time>2022-10-03T08:57:29Z</time>
      </trkpt>
      <trkpt lat="45.19657" lon="5.76723">
        <ele>199.39241</ele>
        <time>2022-10-03T08:57:39Z</time>
      </trkpt>
      <trkpt lat="45.19692" lon="5.76799">
        <ele>199.44496</ele>
        <time>2022-10-03T08:57:49Z</time>
      </trkpt>
      <trkpt lat="45.19725" lon="5.76875">
        <ele>199.51332</ele>
        <time>2022-10-03T08:57:59Z</time>
      </trkpt>
      <trkpt lat="45.1976" lon="5.76948">
        <ele>199.47652</ele>
        <time>2022-10-03T08:58:09Z</time>
      </trkpt>
      <trkpt lat="45.19802" lon="5.77012">
        <ele>199.87607</ele>
        <time>2022-10-03T08:58:19Z</time>
      </trkpt>
      <trkpt lat="45.19815" lon="5.77035">
        <ele>200.1652</ele>
        <time>2022-10-03T08:58:29Z</time>
      </trkpt>
      <trkpt lat="45.19826" lon="5.77044">
        <ele>200.21777</ele>
        <time>2022-10-03T09:01:51Z</time>
      </trkpt>
      <trkpt lat="45.19852" lon="5.77067">
        <ele>199.55011</ele>
        <time>2022-10-03T09:02:01Z</time>
      </trkpt>
      <trkpt lat="45.19911" lon="5.77116">
        <ele>199.40291</ele>
        <time>2022-10-03T09:02:11Z</time>
      </trkpt>
      <trkpt lat="45.19955" lon="5.7716">
        <ele>199.42395</ele>
        <time>2022-10-03T09:02:21Z</time>
      </trkpt>
      <trkpt lat="45.19994" lon="5.7723">
        <ele>199.39241</ele>
        <time>2022-10-03T09:02:31Z</time>
      </trkpt>
      <trkpt lat="45.20023" lon="5.77323">
        <ele>199.50806</ele>
        <time>2022-10-03T09:02:41Z</time>
      </trkpt>
      <trkpt lat="45.20042" lon="5.77402">
        <ele>199.5028</ele>
        <time>2022-10-03T09:02:51Z</time>
      </trkpt>
      <trkpt lat="45.2005" lon="5.77491">
        <ele>199.58165</ele>
        <time>2022-10-03T09:03:01Z</time>
      </trkpt>
      <trkpt lat="45.20033" lon="5.7759">
        <ele>199.50806</ele>
        <time>2022-10-03T09:03:11Z</time>
      </trkpt>
      <trkpt lat="45.20003" lon="5.77663">
        <ele>199.37137</ele>
        <time>2022-10-03T09:03:21Z</time>
      </trkpt>
      <trkpt lat="45.19959" lon="5.77728">
        <ele>199.26624</ele>
        <time>2022-10-03T09:03:31Z</time>
      </trkpt>
      <trkpt lat="45.19905" lon="5.77778">
        <ele>199.12955</ele>
        <time>2022-10-03T09:03:41Z</time>
      </trkpt>
      <trkpt lat="45.19845" lon="5.77816">
        <ele>199.29253</ele>
        <time>2022-10-03T09:03:51Z</time>
      </trkpt>
      <trkpt lat="45.19782" lon="5.77838">
        <ele>199.28726</ele>
        <time>2022-10-03T09:04:01Z</time>
      </trkpt>
      <trkpt lat="45.19719" lon="5.7786">
        <ele>199.14006</ele>
        <time>2022-10-03T09:04:11Z</time>
      </trkpt>
      <trkpt lat="45.19656" lon="5.77876">
        <ele>199.11903</ele>
        <time>2022-10-03T09:04:21Z</time>
      </trkpt>
      <trkpt lat="45.19591" lon="5.77902">
        <ele>199.29253</ele>
        <time>2022-10-03T09:04:31Z</time>
      </trkpt>
      <trkpt lat="45.1953" lon="5.77928">
        <ele>199.57642</ele>
        <time>2022-10-03T09:04:41Z</time>
      </trkpt>
      <trkpt lat="45.19469" lon="5.77951">
        <ele>199.57115</ele>
        <time>2022-10-03T09:04:51Z</time>
      </trkpt>
      <trkpt lat="45.19406" lon="5.7796">
        <ele>199.33458</ele>
        <time>2022-10-03T09:05:01Z</time>
      </trkpt>
      <trkpt lat="45.19342" lon="5.77966">
        <ele>199.466</ele>
        <time>2022-10-03T09:05:11Z</time>
      </trkpt>
      <trkpt lat="45.19277" lon="5.77971">
        <ele>199.42921</ele>
        <time>2022-10-03T09:05:21Z</time>
      </trkpt>
      <trkpt lat="45.19212" lon="5.77995">
        <ele>199.40291</ele>
        <time>2022-10-03T09:05:31Z</time>
      </trkpt>
      <trkpt lat="45.19165" lon="5.78054">
        <ele>199.49228</ele>
        <time>2022-10-03T09:05:41Z</time>
      </trkpt>
      <trkpt lat="45.19124" lon="5.78123">
        <ele>199.77092</ele>
        <time>2022-10-03T09:05:51Z</time>
      </trkpt>
      <trkpt lat="45.19086" lon="5.78198">
        <ele>197.64178</ele>
        <time>2022-10-03T09:06:01Z</time>
      </trkpt>
      <trkpt lat="45.19058" lon="5.78266">
        <ele>199.9812</ele>
        <time>2022-10-03T09:06:11Z</time>
      </trkpt>
      <trkpt lat="45.19029" lon="5.7833">
        <ele>199.94966</ele>
        <time>2022-10-03T09:06:21Z</time>
      </trkpt>
      <trkpt lat="45.19004" lon="5.78407">
        <ele>199.89185</ele>
        <time>2022-10-03T09:06:31Z</time>
      </trkpt>
      <trkpt lat="45.18983" lon="5.78492">
        <ele>199.72887</ele>
        <time>2022-10-03T09:06:41Z</time>
      </trkpt>
      <trkpt lat="45.18967" lon="5.78577">
        <ele>200.10213</ele>
        <time>2022-10-03T09:06:51Z</time>
      </trkpt>
      <trkpt lat="45.18956" lon="5.78633">
        <ele>200.07057</ele>
        <time>2022-10-03T09:07:01Z</time>
      </trkpt>
      <trkpt lat="45.18943" lon="5.78699">
        <ele>200.11263</ele>
        <time>2022-10-03T09:07:11Z</time>
      </trkpt>
      <trkpt lat="45.18928" lon="5.78769">
        <ele>200.15468</ele>
        <time>2022-10-03T09:07:21Z</time>
      </trkpt>
      <trkpt lat="45.18914" lon="5.78826">
        <ele>200.35446</ele>
        <time>2022-10-03T09:07:31Z</time>
      </trkpt>
      <trkpt lat="45.189" lon="5.78842">
        <ele>200.21777</ele>
        <time>2022-10-03T09:07:41Z</time>
      </trkpt>
      <trkpt lat="45.18858" lon="5.78878">
        <ele>199.10326</ele>
        <time>2022-10-03T09:07:51Z</time>
      </trkpt>
      <trkpt lat="45.18822" lon="5.78903">
        <ele>199.5028</ele>
        <time>2022-10-03T09:08:01Z</time>
      </trkpt>
      <trkpt lat="45.18776" lon="5.78911">
        <ele>200.35973</ele>
        <time>2022-10-03T09:08:11Z</time>
      </trkpt>
      <trkpt lat="45.18731" lon="5.78945">
        <ele>200.7908</ele>
        <time>2022-10-03T09:08:21Z</time>
      </trkpt>
      <trkpt lat="45.18675" lon="5.78961">
        <ele>201.24817</ele>
        <time>2022-10-03T09:08:31Z</time>
      </trkpt>
      <trkpt lat="45.1862" lon="5.78977">
        <ele>200.88544</ele>
        <time>2022-10-03T09:08:41Z</time>
      </trkpt>
      <trkpt lat="45.18589" lon="5.78991">
        <ele>199.84453</ele>
        <time>2022-10-03T09:08:51Z</time>
      </trkpt>
      <trkpt lat="45.18554" lon="5.79014">
        <ele>201.21138</ele>
        <time>2022-10-03T09:09:01Z</time>
      </trkpt>
      <trkpt lat="45.18514" lon="5.79038">
        <ele>201.80542</ele>
        <time>2022-10-03T09:09:11Z</time>
      </trkpt>
      <trkpt lat="45.1846" lon="5.79054">
        <ele>201.56886</ele>
        <time>2022-10-03T09:09:21Z</time>
      </trkpt>
      <trkpt lat="45.18407" lon="5.79065">
        <ele>202.34691</ele>
        <time>2022-10-03T09:09:31Z</time>
      </trkpt>
      <trkpt lat="45.18364" lon="5.79104">
        <ele>203.08817</ele>
        <time>2022-10-03T09:09:41Z</time>
      </trkpt>
      <trkpt lat="45.18326" lon="5.79151">
        <ele>204.56543</ele>
        <time>2022-10-03T09:09:51Z</time>
      </trkpt>
      <trkpt lat="45.18285" lon="5.79182">
        <ele>206.23193</ele>
        <time>2022-10-03T09:10:01Z</time>
      </trkpt>
      <trkpt lat="45.1824" lon="5.79206">
        <ele>207.55672</ele>
        <time>2022-10-03T09:10:11Z</time>
      </trkpt>
      <trkpt lat="45.18218" lon="5.79233">
        <ele>208.10347</ele>
        <time>2022-10-03T09:10:21Z</time>
      </trkpt>
      <trkpt lat="45.18183" lon="5.79246">
        <ele>209.87512</ele>
        <time>2022-10-03T09:10:31Z</time>
      </trkpt>
      <trkpt lat="45.18156" lon="5.79283">
        <ele>211.24197</ele>
        <time>2022-10-03T09:10:41Z</time>
      </trkpt>
      <trkpt lat="45.18131" lon="5.79319">
        <ele>213.10826</ele>
        <time>2022-10-03T09:10:51Z</time>
      </trkpt>
      <trkpt lat="45.18109" lon="5.79352">
        <ele>215.02711</ele>
        <time>2022-10-03T09:11:01Z</time>
      </trkpt>
      <trkpt lat="45.18088" lon="5.79379">
        <ele>217.37706</ele>
        <time>2022-10-03T09:11:11Z</time>
      </trkpt>
      <trkpt lat="45.18072" lon="5.79404">
        <ele>220.08446</ele>
        <time>2022-10-03T09:11:21Z</time>
      </trkpt>
      <trkpt lat="45.18073" lon="5.79435">
        <ele>222.24513</ele>
        <time>2022-10-03T09:11:31Z</time>
      </trkpt>
      <trkpt lat="45.18074" lon="5.79465">
        <ele>225.0472</ele>
        <time>2022-10-03T09:11:41Z</time>
      </trkpt>
      <trkpt lat="45.18074" lon="5.79494">
        <ele>228.64833</ele>
        <time>2022-10-03T09:11:51Z</time>
      </trkpt>
      <trkpt lat="45.18079" lon="5.79528">
        <ele>231.9498</ele>
        <time>2022-10-03T09:12:01Z</time>
      </trkpt>
      <trkpt lat="45.18083" lon="5.79559">
        <ele>235.31436</ele>
        <time>2022-10-03T09:12:11Z</time>
      </trkpt>
      <trkpt lat="45.18063" lon="5.7955">
        <ele>238.8051</ele>
        <time>2022-10-03T09:12:21Z</time>
      </trkpt>
      <trkpt lat="45.18052" lon="5.79521">
        <ele>241.89105</ele>
        <time>2022-10-03T09:12:31Z</time>
      </trkpt>
      <trkpt lat="45.18034" lon="5.79493">
        <ele>245.39754</ele>
        <time>2022-10-03T09:12:41Z</time>
      </trkpt>
      <trkpt lat="45.18021" lon="5.79467">
        <ele>249.02498</ele>
        <time>2022-10-03T09:12:51Z</time>
      </trkpt>
      <trkpt lat="45.18002" lon="5.79439">
        <ele>252.62083</ele>
        <time>2022-10-03T09:13:01Z</time>
      </trkpt>
      <trkpt lat="45.17983" lon="5.79412">
        <ele>256.24826</ele>
        <time>2022-10-03T09:13:11Z</time>
      </trkpt>
      <trkpt lat="45.17969" lon="5.79392">
        <ele>260.25418</ele>
        <time>2022-10-03T09:13:21Z</time>
      </trkpt>
      <trkpt lat="45.1795" lon="5.7937">
        <ele>264.5072</ele>
        <time>2022-10-03T09:13:31Z</time>
      </trkpt>
      <trkpt lat="45.17927" lon="5.79348">
        <ele>268.41852</ele>
        <time>2022-10-03T09:13:41Z</time>
      </trkpt>
      <trkpt lat="45.17903" lon="5.79338">
        <ele>271.8882</ele>
        <time>2022-10-03T09:13:51Z</time>
      </trkpt>
      <trkpt lat="45.17892" lon="5.7931">
        <ele>273.17624</ele>
        <time>2022-10-03T09:14:01Z</time>
      </trkpt>
      <trkpt lat="45.17891" lon="5.7929">
        <ele>274.9321</ele>
        <time>2022-10-03T09:14:11Z</time>
      </trkpt>
      <trkpt lat="45.17901" lon="5.79321">
        <ele>272.0617</ele>
        <time>2022-10-03T09:17:00Z</time>
      </trkpt>
      <trkpt lat="45.17897" lon="5.79267">
        <ele>267.1936</ele>
        <time>2022-10-03T09:17:10Z</time>
      </trkpt>
      <trkpt lat="45.17833" lon="5.79167">
        <ele>259.08185</ele>
        <time>2022-10-03T09:17:20Z</time>
      </trkpt>
      <trkpt lat="45.1777" lon="5.79091">
        <ele>251.622</ele>
        <time>2022-10-03T09:17:30Z</time>
      </trkpt>
      <trkpt lat="45.17662" lon="5.79074">
        <ele>242.11185</ele>
        <time>2022-10-03T09:17:40Z</time>
      </trkpt>
      <trkpt lat="45.176" lon="5.79056">
        <ele>235.11986</ele>
        <time>2022-10-03T09:17:50Z</time>
      </trkpt>
      <trkpt lat="45.17681" lon="5.79035">
        <ele>228.16994</ele>
        <time>2022-10-03T09:18:00Z</time>
      </trkpt>
      <trkpt lat="45.17789" lon="5.79035">
        <ele>219.94254</ele>
        <time>2022-10-03T09:18:10Z</time>
      </trkpt>
      <trkpt lat="45.17833" lon="5.79018">
        <ele>217.8975</ele>
        <time>2022-10-03T09:18:20Z</time>
      </trkpt>
      <trkpt lat="45.17836" lon="5.78985">
        <ele>218.59145</ele>
        <time>2022-10-03T09:18:30Z</time>
      </trkpt>
      <trkpt lat="45.17872" lon="5.78965">
        <ele>218.02368</ele>
        <time>2022-10-03T09:18:40Z</time>
      </trkpt>
      <trkpt lat="45.17901" lon="5.78927">
        <ele>217.4559</ele>
        <time>2022-10-03T09:18:50Z</time>
      </trkpt>
      <trkpt lat="45.17888" lon="5.7886">
        <ele>217.69247</ele>
        <time>2022-10-03T09:19:00Z</time>
      </trkpt>
      <trkpt lat="45.1789" lon="5.78776">
        <ele>213.9494</ele>
        <time>2022-10-03T09:19:10Z</time>
      </trkpt>
      <trkpt lat="45.17889" lon="5.78693">
        <ele>210.19582</ele>
        <time>2022-10-03T09:19:20Z</time>
      </trkpt>
      <trkpt lat="45.17879" lon="5.78616">
        <ele>207.4358</ele>
        <time>2022-10-03T09:19:30Z</time>
      </trkpt>
      <trkpt lat="45.17876" lon="5.78524">
        <ele>205.95856</ele>
        <time>2022-10-03T09:19:40Z</time>
      </trkpt>
      <trkpt lat="45.17869" lon="5.78444">
        <ele>205.54324</ele>
        <time>2022-10-03T09:19:50Z</time>
      </trkpt>
      <trkpt lat="45.17847" lon="5.78371">
        <ele>205.59583</ele>
        <time>2022-10-03T09:20:00Z</time>
      </trkpt>
      <trkpt lat="45.1782" lon="5.7829">
        <ele>204.34462</ele>
        <time>2022-10-03T09:20:10Z</time>
      </trkpt>
      <trkpt lat="45.17804" lon="5.78226">
        <ele>203.61914</ele>
        <time>2022-10-03T09:20:20Z</time>
      </trkpt>
      <trkpt lat="45.17806" lon="5.78127">
        <ele>201.59514</ele>
        <time>2022-10-03T09:20:30Z</time>
      </trkpt>
      <trkpt lat="45.17809" lon="5.78027">
        <ele>199.86554</ele>
        <time>2022-10-03T09:20:40Z</time>
      </trkpt>
      <trkpt lat="45.17791" lon="5.77924">
        <ele>198.67218</ele>
        <time>2022-10-03T09:20:50Z</time>
      </trkpt>
      <trkpt lat="45.17765" lon="5.77837">
        <ele>198.88773</ele>
        <time>2022-10-03T09:21:00Z</time>
      </trkpt>
      <trkpt lat="45.1776" lon="5.77784">
        <ele>198.4724</ele>
        <time>2022-10-03T09:21:10Z</time>
      </trkpt>
      <trkpt lat="45.17773" lon="5.77741">
        <ele>197.64703</ele>
        <time>2022-10-03T09:21:20Z</time>
      </trkpt>
      <trkpt lat="45.17782" lon="5.77667">
        <ele>197.68384</ele>
        <time>2022-10-03T09:21:30Z</time>
      </trkpt>
      <trkpt lat="45.17805" lon="5.77591">
        <ele>197.46303</ele>
        <time>2022-10-03T09:21:40Z</time>
      </trkpt>
      <trkpt lat="45.17828" lon="5.7751">
        <ele>197.76268</ele>
        <time>2022-10-03T09:21:50Z</time>
      </trkpt>
      <trkpt lat="45.17841" lon="5.77456">
        <ele>197.86258</ele>
        <time>2022-10-03T09:22:00Z</time>
      </trkpt>
      <trkpt lat="45.17851" lon="5.77423">
        <ele>197.69962</ele>
        <time>2022-10-03T09:22:10Z</time>
      </trkpt>
      <trkpt lat="45.17861" lon="5.77382">
        <ele>197.19492</ele>
        <time>2022-10-03T09:22:20Z</time>
      </trkpt>
      <trkpt lat="45.17869" lon="5.77352">
        <ele>197.43675</ele>
        <time>2022-10-03T09:22:30Z</time>
      </trkpt>
      <trkpt lat="45.17852" lon="5.77331">
        <ele>197.26328</ele>
        <time>2022-10-03T09:23:08Z</time>
      </trkpt>
      <trkpt lat="45.17834" lon="5.77301">
        <ele>197.18442</ele>
        <time>2022-10-03T09:23:18Z</time>
      </trkpt>
      <trkpt lat="45.17843" lon="5.77327">
        <ele>197.14236</ele>
        <time>2022-10-03T09:23:56Z</time>
      </trkpt>
      <trkpt lat="45.17867" lon="5.77344">
        <ele>197.20018</ele>
        <time>2022-10-03T09:24:06Z</time>
      </trkpt>
      <trkpt lat="45.17883" lon="5.77296">
        <ele>197.20544</ele>
        <time>2022-10-03T09:24:16Z</time>
      </trkpt>
      <trkpt lat="45.17903" lon="5.77228">
        <ele>196.79012</ele>
        <time>2022-10-03T09:24:26Z</time>
      </trkpt>
      <trkpt lat="45.17925" lon="5.77149">
        <ele>197.00568</ele>
        <time>2022-10-03T09:24:36Z</time>
      </trkpt>
      <trkpt lat="45.17947" lon="5.77064">
        <ele>197.17915</ele>
        <time>2022-10-03T09:24:46Z</time>
      </trkpt>
      <trkpt lat="45.17971" lon="5.7698">
        <ele>196.99516</ele>
        <time>2022-10-03T09:24:56Z</time>
      </trkpt>
      <trkpt lat="45.17996" lon="5.76895">
        <ele>196.77435</ele>
        <time>2022-10-03T09:25:06Z</time>
      </trkpt>
      <trkpt lat="45.18017" lon="5.76807">
        <ele>197.10555</ele>
        <time>2022-10-03T09:25:16Z</time>
      </trkpt>
      <trkpt lat="45.18039" lon="5.76727">
        <ele>198.14647</ele>
        <time>2022-10-03T09:25:26Z</time>
      </trkpt>
      <trkpt lat="45.18058" lon="5.76658">
        <ele>197.80476</ele>
        <time>2022-10-03T09:25:36Z</time>
      </trkpt>
      <trkpt lat="45.18081" lon="5.76572">
        <ele>196.96362</ele>
        <time>2022-10-03T09:25:46Z</time>
      </trkpt>
      <trkpt lat="45.18102" lon="5.76483">
        <ele>196.96886</ele>
        <time>2022-10-03T09:25:56Z</time>
      </trkpt>
      <trkpt lat="45.18126" lon="5.76399">
        <ele>196.6692</ele>
        <time>2022-10-03T09:26:06Z</time>
      </trkpt>
      <trkpt lat="45.18149" lon="5.76313">
        <ele>196.5115</ele>
        <time>2022-10-03T09:26:16Z</time>
      </trkpt>
      <trkpt lat="45.18171" lon="5.76227">
        <ele>196.5115</ele>
        <time>2022-10-03T09:26:26Z</time>
      </trkpt>
      <trkpt lat="45.18195" lon="5.76139">
        <ele>196.33801</ele>
        <time>2022-10-03T09:26:36Z</time>
      </trkpt>
      <trkpt lat="45.18217" lon="5.76051">
        <ele>196.42213</ele>
        <time>2022-10-03T09:26:46Z</time>
      </trkpt>
      <trkpt lat="45.18241" lon="5.75966">
        <ele>196.64293</ele>
        <time>2022-10-03T09:26:56Z</time>
      </trkpt>
      <trkpt lat="45.18266" lon="5.75882">
        <ele>196.52728</ele>
        <time>2022-10-03T09:27:06Z</time>
      </trkpt>
      <trkpt lat="45.18291" lon="5.75795">
        <ele>196.6482</ele>
        <time>2022-10-03T09:27:16Z</time>
      </trkpt>
      <trkpt lat="45.18314" lon="5.75708">
        <ele>196.59036</ele>
        <time>2022-10-03T09:27:26Z</time>
      </trkpt>
      <trkpt lat="45.18332" lon="5.7564">
        <ele>196.83743</ele>
        <time>2022-10-03T09:27:36Z</time>
      </trkpt>
      <trkpt lat="45.18353" lon="5.75558">
        <ele>196.70601</ele>
        <time>2022-10-03T09:27:46Z</time>
      </trkpt>
      <trkpt lat="45.18376" lon="5.75475">
        <ele>196.75858</ele>
        <time>2022-10-03T09:27:56Z</time>
      </trkpt>
      <trkpt lat="45.18388" lon="5.75443">
        <ele>196.70076</ele>
        <time>2022-10-03T09:28:06Z</time>
      </trkpt>
      <trkpt lat="45.18406" lon="5.75435">
        <ele>196.85321</ele>
        <time>2022-10-03T09:28:16Z</time>
      </trkpt>
      <trkpt lat="45.18403" lon="5.75432">
        <ele>196.9268</ele>
        <time>2022-10-03T09:28:28Z</time>
      </trkpt>
      <trkpt lat="45.18403" lon="5.75434">
        <ele>197.01094</ele>
        <time>2022-10-03T09:28:48Z</time>
      </trkpt>
      <trkpt lat="45.18398" lon="5.75408">
        <ele>197.1739</ele>
        <time>2022-10-03T09:29:28Z</time>
      </trkpt>
      <trkpt lat="45.18411" lon="5.75358">
        <ele>197.12659</ele>
        <time>2022-10-03T09:29:38Z</time>
      </trkpt>
      <trkpt lat="45.18432" lon="5.75284">
        <ele>196.97939</ele>
        <time>2022-10-03T09:29:48Z</time>
      </trkpt>
      <trkpt lat="45.1845" lon="5.75213">
        <ele>196.8164</ele>
        <time>2022-10-03T09:29:58Z</time>
      </trkpt>
      <trkpt lat="45.18461" lon="5.75162">
        <ele>196.47997</ele>
        <time>2022-10-03T09:30:08Z</time>
      </trkpt>
      <trkpt lat="45.1848" lon="5.75094">
        <ele>196.46419</ele>
        <time>2022-10-03T09:30:18Z</time>
      </trkpt>
      <trkpt lat="45.18498" lon="5.75026">
        <ele>196.60088</ele>
        <time>2022-10-03T09:30:28Z</time>
      </trkpt>
      <trkpt lat="45.18518" lon="5.74978">
        <ele>196.72179</ele>
        <time>2022-10-03T09:30:38Z</time>
      </trkpt>
      <trkpt lat="45.18534" lon="5.74904">
        <ele>196.43791</ele>
        <time>2022-10-03T09:30:48Z</time>
      </trkpt>
      <trkpt lat="45.18544" lon="5.74852">
        <ele>196.59036</ele>
        <time>2022-10-03T09:30:58Z</time>
      </trkpt>
      <trkpt lat="45.18558" lon="5.74795">
        <ele>196.55356</ele>
        <time>2022-10-03T09:31:08Z</time>
      </trkpt>
      <trkpt lat="45.18581" lon="5.74718">
        <ele>196.48523</ele>
        <time>2022-10-03T09:31:18Z</time>
      </trkpt>
      <trkpt lat="45.18603" lon="5.7463">
        <ele>196.55356</ele>
        <time>2022-10-03T09:31:28Z</time>
      </trkpt>
      <trkpt lat="45.18627" lon="5.74545">
        <ele>196.71126</ele>
        <time>2022-10-03T09:31:38Z</time>
      </trkpt>
      <trkpt lat="45.18649" lon="5.74463">
        <ele>197.34738</ele>
        <time>2022-10-03T09:31:48Z</time>
      </trkpt>
      <trkpt lat="45.18665" lon="5.74425">
        <ele>197.44202</ele>
        <time>2022-10-03T09:31:58Z</time>
      </trkpt>
      <trkpt lat="45.18679" lon="5.74423">
        <ele>197.74693</ele>
        <time>2022-10-03T09:32:08Z</time>
      </trkpt>
      <trkpt lat="45.18684" lon="5.74411">
        <ele>197.69962</ele>
        <time>2022-10-03T09:32:18Z</time>
      </trkpt>
      <trkpt lat="45.18676" lon="5.74385">
        <ele>197.49983</ele>
        <time>2022-10-03T09:32:32Z</time>
      </trkpt>
      <trkpt lat="45.18692" lon="5.74317">
        <ele>196.98463</ele>
        <time>2022-10-03T09:32:42Z</time>
      </trkpt>
      <trkpt lat="45.18711" lon="5.74248">
        <ele>197.22122</ele>
        <time>2022-10-03T09:32:52Z</time>
      </trkpt>
      <trkpt lat="45.18724" lon="5.7423">
        <ele>197.41048</ele>
        <time>2022-10-03T09:33:02Z</time>
      </trkpt>
      <trkpt lat="45.18737" lon="5.74219">
        <ele>197.5787</ele>
        <time>2022-10-03T09:33:12Z</time>
      </trkpt>
      <trkpt lat="45.18733" lon="5.74198">
        <ele>197.69962</ele>
        <time>2022-10-03T09:33:52Z</time>
      </trkpt>
      <trkpt lat="45.18706" lon="5.742">
        <ele>197.94145</ele>
        <time>2022-10-03T09:34:02Z</time>
      </trkpt>
      <trkpt lat="45.18669" lon="5.74214">
        <ele>197.3579</ele>
        <time>2022-10-03T09:34:12Z</time>
      </trkpt>
      <trkpt lat="45.18625" lon="5.74227">
        <ele>197.30006</ele>
        <time>2022-10-03T09:34:22Z</time>
      </trkpt>
      <trkpt lat="45.18604" lon="5.74232">
        <ele>197.05823</ele>
        <time>2022-10-03T09:34:32Z</time>
      </trkpt>
      <trkpt lat="45.18578" lon="5.7423">
        <ele>196.83743</ele>
        <time>2022-10-03T09:34:42Z</time>
      </trkpt>
      <trkpt lat="45.18546" lon="5.74192">
        <ele>196.64293</ele>
        <time>2022-10-03T09:34:52Z</time>
      </trkpt>
      <trkpt lat="45.18505" lon="5.7415">
        <ele>197.23174</ele>
        <time>2022-10-03T09:35:02Z</time>
      </trkpt>
      <trkpt lat="45.18471" lon="5.74093">
        <ele>196.74806</ele>
        <time>2022-10-03T09:35:12Z</time>
      </trkpt>
      <trkpt lat="45.18442" lon="5.74027">
        <ele>197.02669</ele>
        <time>2022-10-03T09:35:22Z</time>
      </trkpt>
      <trkpt lat="45.18413" lon="5.73954">
        <ele>197.27379</ele>
        <time>2022-10-03T09:35:32Z</time>
      </trkpt>
      <trkpt lat="45.18389" lon="5.73895">
        <ele>197.43675</ele>
        <time>2022-10-03T09:35:42Z</time>
      </trkpt>
      <trkpt lat="45.18368" lon="5.73835">
        <ele>197.10555</ele>
        <time>2022-10-03T09:35:52Z</time>
      </trkpt>
      <trkpt lat="45.18338" lon="5.73761">
        <ele>197.03195</ele>
        <time>2022-10-03T09:36:02Z</time>
      </trkpt>
      <trkpt lat="45.18309" lon="5.73687">
        <ele>196.80064</ele>
        <time>2022-10-03T09:36:12Z</time>
      </trkpt>
      <trkpt lat="45.18277" lon="5.7361">
        <ele>196.52728</ele>
        <time>2022-10-03T09:36:22Z</time>
      </trkpt>
      <trkpt lat="45.1826" lon="5.73572">
        <ele>196.92154</ele>
        <time>2022-10-03T09:36:32Z</time>
      </trkpt>
      <trkpt lat="45.18235" lon="5.73514">
        <ele>196.69025</ele>
        <time>2022-10-03T09:36:42Z</time>
      </trkpt>
      <trkpt lat="45.18213" lon="5.73446">
        <ele>196.88475</ele>
        <time>2022-10-03T09:36:52Z</time>
      </trkpt>
      <trkpt lat="45.1821" lon="5.73403">
        <ele>196.97939</ele>
        <time>2022-10-03T09:37:02Z</time>
      </trkpt>
      <trkpt lat="45.18213" lon="5.7337">
        <ele>196.8427</ele>
        <time>2022-10-03T09:37:12Z</time>
      </trkpt>
      <trkpt lat="45.18205" lon="5.73324">
        <ele>197.12659</ele>
        <time>2022-10-03T09:37:22Z</time>
      </trkpt>
      <trkpt lat="45.18203" lon="5.73253">
        <ele>196.9531</ele>
        <time>2022-10-03T09:37:32Z</time>
      </trkpt>
      <trkpt lat="45.18202" lon="5.73172">
        <ele>197.51035</ele>
        <time>2022-10-03T09:37:42Z</time>
      </trkpt>
      <trkpt lat="45.18199" lon="5.73089">
        <ele>197.12659</ele>
        <time>2022-10-03T09:37:52Z</time>
      </trkpt>
      <trkpt lat="45.18197" lon="5.73001">
        <ele>197.59972</ele>
        <time>2022-10-03T09:38:02Z</time>
      </trkpt>
      <trkpt lat="45.18202" lon="5.72913">
        <ele>197.4315</ele>
        <time>2022-10-03T09:38:12Z</time>
      </trkpt>
      <trkpt lat="45.18202" lon="5.72832">
        <ele>197.83104</ele>
        <time>2022-10-03T09:38:22Z</time>
      </trkpt>
      <trkpt lat="45.18216" lon="5.72774">
        <ele>197.89413</ele>
        <time>2022-10-03T09:38:32Z</time>
      </trkpt>
      <trkpt lat="45.18232" lon="5.72752">
        <ele>197.81</ele>
        <time>2022-10-03T09:38:42Z</time>
      </trkpt>
      <trkpt lat="45.18228" lon="5.72742">
        <ele>197.76268</ele>
        <time>2022-10-03T09:39:04Z</time>
      </trkpt>
      <trkpt lat="45.18204" lon="5.72691">
        <ele>198.546</ele>
        <time>2022-10-03T09:39:14Z</time>
      </trkpt>
      <trkpt lat="45.18179" lon="5.72624">
        <ele>198.34624</ele>
        <time>2022-10-03T09:39:24Z</time>
        <extensions>
          <gpxtpx:TrackPointExtension xmlns:gpxtpx="http://www.garmin.com/xmlschemas/TrackPointExtension/v1">
            <gpxtpx:hr>117</gpxtpx:hr>
          </gpxtpx:TrackPointExtension>
        </extensions>
      </trkpt>
      <trkpt lat="45.18156" lon="5.72548">
        <ele>198.8772</ele>
        <time>2022-10-03T09:39:34Z</time>
      </trkpt>
      <trkpt lat="45.18141" lon="5.72495">
        <ele>198.44612</ele>
        <time>2022-10-03T09:39:44Z</time>
      </trkpt>
      <trkpt lat="45.18132" lon="5.72476">
        <ele>198.44612</ele>
        <time>2022-10-03T09:39:54Z</time>
      </trkpt>
      <trkpt lat="45.18124" lon="5.72425">
        <ele>198.50395</ele>
        <time>2022-10-03T09:40:04Z</time>
      </trkpt>
      <trkpt lat="45.18116" lon="5.72348">
        <ele>198.82988</ele>
        <time>2022-10-03T09:40:14Z</time>
      </trkpt>
      <trkpt lat="45.18111" lon="5.72311">
        <ele>198.74577</ele>
        <time>2022-10-03T09:40:24Z</time>
        <extensions>
          <gpxtpx:TrackPointExtension xmlns:gpxtpx="http://www.garmin.com/xmlschemas/TrackPointExtension/v1">
            <gpxtpx:hr>117</gpxtpx:hr>
          </gpxtpx:TrackPointExtension>
        </extensions>
      </trkpt>
      <trkpt lat="45.18104" lon="5.72284">
        <ele>199.04018</ele>
        <time>2022-10-03T09:41:16Z</time>
      </trkpt>
      <trkpt lat="45.18097" lon="5.72225">
        <ele>199.58691</ele>
        <time>2022-10-03T09:41:26Z</time>
      </trkpt>
      <trkpt lat="45.18089" lon="5.72172">
        <ele>201.0116</ele>
        <time>2022-10-03T09:41:36Z</time>
      </trkpt>
      <trkpt lat="45.18084" lon="5.72124">
        <ele>201.16406</ele>
        <time>2022-10-03T09:41:46Z</time>
      </trkpt>
      <trkpt lat="45.18078" lon="5.72055">
        <ele>203.25641</ele>
        <time>2022-10-03T09:41:56Z</time>
      </trkpt>
      <trkpt lat="45.18075" lon="5.71988">
        <ele>205.16473</ele>
        <time>2022-10-03T09:42:06Z</time>
      </trkpt>
      <trkpt lat="45.18072" lon="5.71938">
        <ele>206.14781</ele>
        <time>2022-10-03T09:42:16Z</time>
      </trkpt>
      <trkpt lat="45.18067" lon="5.71876">
        <ele>205.3172</ele>
        <time>2022-10-03T09:42:26Z</time>
      </trkpt>
      <trkpt lat="45.18064" lon="5.71816">
        <ele>204.38667</ele>
        <time>2022-10-03T09:42:36Z</time>
      </trkpt>
      <trkpt lat="45.18061" lon="5.71743">
        <ele>201.56886</ele>
        <time>2022-10-03T09:42:46Z</time>
      </trkpt>
      <trkpt lat="45.18059" lon="5.71687">
        <ele>200.57526</ele>
        <time>2022-10-03T09:42:56Z</time>
      </trkpt>
      <trkpt lat="45.18062" lon="5.71651">
        <ele>199.9339</ele>
        <time>2022-10-03T09:43:06Z</time>
      </trkpt>
      <trkpt lat="45.18045" lon="5.71581">
        <ele>199.29778</ele>
        <time>2022-10-03T09:43:16Z</time>
      </trkpt>
      <trkpt lat="45.18039" lon="5.71488">
        <ele>199.24521</ele>
        <time>2022-10-03T09:43:26Z</time>
      </trkpt>
      <trkpt lat="45.18034" lon="5.71404">
        <ele>199.3819</ele>
        <time>2022-10-03T09:43:36Z</time>
      </trkpt>
      <trkpt lat="45.18029" lon="5.71301">
        <ele>199.66052</ele>
        <time>2022-10-03T09:43:46Z</time>
      </trkpt>
      <trkpt lat="45.1803" lon="5.71212">
        <ele>200.25458</ele>
        <time>2022-10-03T09:43:56Z</time>
      </trkpt>
      <trkpt lat="45.18027" lon="5.7113">
        <ele>200.5332</ele>
        <time>2022-10-03T09:44:06Z</time>
      </trkpt>
      <trkpt lat="45.18026" lon="5.71066">
        <ele>200.57526</ele>
        <time>2022-10-03T09:44:16Z</time>
      </trkpt>
      <trkpt lat="45.18028" lon="5.71042">
        <ele>200.95903</ele>
        <time>2022-10-03T09:44:26Z</time>
      </trkpt>
      <trkpt lat="45.18032" lon="5.70995">
        <ele>201.06943</ele>
        <time>2022-10-03T09:44:36Z</time>
      </trkpt>
      <trkpt lat="45.18029" lon="5.70916">
        <ele>200.90645</ele>
        <time>2022-10-03T09:44:46Z</time>
      </trkpt>
      <trkpt lat="45.18027" lon="5.7084">
        <ele>201.31651</ele>
        <time>2022-10-03T09:44:56Z</time>
      </trkpt>
      <trkpt lat="45.18025" lon="5.70775">
        <ele>201.46371</ele>
        <time>2022-10-03T09:45:06Z</time>
      </trkpt>
      <trkpt lat="45.18023" lon="5.70689">
        <ele>201.60567</ele>
        <time>2022-10-03T09:45:16Z</time>
      </trkpt>
      <trkpt lat="45.18024" lon="5.70614">
        <ele>202.14716</ele>
        <time>2022-10-03T09:45:26Z</time>
      </trkpt>
      <trkpt lat="45.18028" lon="5.70537">
        <ele>202.73068</ele>
        <time>2022-10-03T09:45:36Z</time>
      </trkpt>
      <trkpt lat="45.1802" lon="5.70451">
        <ele>204.83354</ele>
        <time>2022-10-03T09:45:46Z</time>
      </trkpt>
      <trkpt lat="45.18018" lon="5.70391">
        <ele>205.92175</ele>
        <time>2022-10-03T09:45:56Z</time>
      </trkpt>
      <trkpt lat="45.18016" lon="5.70359">
        <ele>207.02576</ele>
        <time>2022-10-03T09:46:06Z</time>
      </trkpt>
      <trkpt lat="45.18016" lon="5.70312">
        <ele>208.49776</ele>
        <time>2022-10-03T09:46:16Z</time>
      </trkpt>
      <trkpt lat="45.18018" lon="5.70261">
        <ele>210.343</ele>
        <time>2022-10-03T09:46:26Z</time>
      </trkpt>
      <trkpt lat="45.18018" lon="5.70195">
        <ele>211.65729</ele>
        <time>2022-10-03T09:46:36Z</time>
      </trkpt>
      <trkpt lat="45.18018" lon="5.70113">
        <ele>211.85179</ele>
        <time>2022-10-03T09:46:46Z</time>
      </trkpt>
      <trkpt lat="45.1802" lon="5.70037">
        <ele>211.0317</ele>
        <time>2022-10-03T09:46:56Z</time>
      </trkpt>
      <trkpt lat="45.18023" lon="5.6994">
        <ele>209.26004</ele>
        <time>2022-10-03T09:47:06Z</time>
      </trkpt>
      <trkpt lat="45.18029" lon="5.69822">
        <ele>203.39833</ele>
        <time>2022-10-03T09:47:16Z</time>
      </trkpt>
      <trkpt lat="45.18034" lon="5.69789">
        <ele>201.7581</ele>
        <time>2022-10-03T09:47:26Z</time>
      </trkpt>
      <trkpt lat="45.18035" lon="5.69755">
        <ele>201.81595</ele>
        <time>2022-10-03T09:47:46Z</time>
      </trkpt>
      <trkpt lat="45.18037" lon="5.69677">
        <ele>202.12611</ele>
        <time>2022-10-03T09:47:56Z</time>
      </trkpt>
      <trkpt lat="45.18041" lon="5.69591">
        <ele>202.042</ele>
        <time>2022-10-03T09:48:06Z</time>
      </trkpt>
      <trkpt lat="45.18045" lon="5.69515">
        <ele>202.02097</ele>
        <time>2022-10-03T09:48:16Z</time>
      </trkpt>
      <trkpt lat="45.18045" lon="5.69451">
        <ele>201.40062</ele>
        <time>2022-10-03T09:48:26Z</time>
      </trkpt>
      <trkpt lat="45.18026" lon="5.69444">
        <ele>201.53731</ele>
        <time>2022-10-03T09:48:36Z</time>
      </trkpt>
      <trkpt lat="45.17981" lon="5.6945">
        <ele>201.52681</ele>
        <time>2022-10-03T09:48:46Z</time>
      </trkpt>
      <trkpt lat="45.17925" lon="5.69444">
        <ele>201.51103</ele>
        <time>2022-10-03T09:48:56Z</time>
      </trkpt>
      <trkpt lat="45.1786" lon="5.69442">
        <ele>202.05779</ele>
        <time>2022-10-03T09:49:06Z</time>
      </trkpt>
      <trkpt lat="45.17794" lon="5.69438">
        <ele>202.4205</ele>
        <time>2022-10-03T09:49:16Z</time>
      </trkpt>
      <trkpt lat="45.17729" lon="5.69435">
        <ele>202.68863</ele>
        <time>2022-10-03T09:49:26Z</time>
      </trkpt>
      <trkpt lat="45.17664" lon="5.69434">
        <ele>203.04611</ele>
        <time>2022-10-03T09:49:36Z</time>
      </trkpt>
      <trkpt lat="45.17598" lon="5.69431">
        <ele>202.76224</ele>
        <time>2022-10-03T09:49:46Z</time>
      </trkpt>
      <trkpt lat="45.17549" lon="5.69426">
        <ele>203.28795</ele>
        <time>2022-10-03T09:49:56Z</time>
      </trkpt>
      <trkpt lat="45.17513" lon="5.69426">
        <ele>203.40886</ele>
        <time>2022-10-03T09:50:06Z</time>
      </trkpt>
      <trkpt lat="45.17456" lon="5.69424">
        <ele>203.89777</ele>
        <time>2022-10-03T09:50:16Z</time>
      </trkpt>
      <trkpt lat="45.17396" lon="5.6942">
        <ele>204.18166</ele>
        <time>2022-10-03T09:50:26Z</time>
      </trkpt>
      <trkpt lat="45.17333" lon="5.69418">
        <ele>204.4708</ele>
        <time>2022-10-03T09:50:36Z</time>
      </trkpt>
      <trkpt lat="45.17268" lon="5.69419">
        <ele>204.52336</ele>
        <time>2022-10-03T09:50:46Z</time>
      </trkpt>
      <trkpt lat="45.17205" lon="5.69424">
        <ele>205.11215</ele>
        <time>2022-10-03T09:50:56Z</time>
      </trkpt>
      <trkpt lat="45.17139" lon="5.6943">
        <ele>205.27513</ele>
        <time>2022-10-03T09:51:06Z</time>
      </trkpt>
      <trkpt lat="45.17075" lon="5.6943">
        <ele>205.95856</ele>
        <time>2022-10-03T09:51:16Z</time>
      </trkpt>
      <trkpt lat="45.1701" lon="5.69426">
        <ele>206.81548</ele>
        <time>2022-10-03T09:51:26Z</time>
      </trkpt>
      <trkpt lat="45.16946" lon="5.69428">
        <ele>206.40015</ele>
        <time>2022-10-03T09:51:36Z</time>
      </trkpt>
      <trkpt lat="45.1688" lon="5.69432">
        <ele>206.53683</ele>
        <time>2022-10-03T09:51:46Z</time>
      </trkpt>
      <trkpt lat="45.16816" lon="5.69432">
        <ele>207.2676</ele>
        <time>2022-10-03T09:51:56Z</time>
      </trkpt>
      <trkpt lat="45.16754" lon="5.69434">
        <ele>208.26643</ele>
        <time>2022-10-03T09:52:06Z</time>
      </trkpt>
      <trkpt lat="45.16726" lon="5.69415">
        <ele>208.15079</ele>
        <time>2022-10-03T09:52:16Z</time>
      </trkpt>
      <trkpt lat="45.16713" lon="5.69363">
        <ele>208.37158</ele>
        <time>2022-10-03T09:52:26Z</time>
      </trkpt>
      <trkpt lat="45.16715" lon="5.69295">
        <ele>209.37569</ele>
        <time>2022-10-03T09:52:36Z</time>
      </trkpt>
      <trkpt lat="45.16718" lon="5.6923">
        <ele>211.48381</ele>
        <time>2022-10-03T09:52:46Z</time>
      </trkpt>
      <trkpt lat="45.16727" lon="5.69185">
        <ele>212.83488</ele>
        <time>2022-10-03T09:52:56Z</time>
      </trkpt>
      <trkpt lat="45.16766" lon="5.6916">
        <ele>211.16838</ele>
        <time>2022-10-03T09:53:06Z</time>
      </trkpt>
      <trkpt lat="45.1681" lon="5.69147">
        <ele>210.14323</ele>
        <time>2022-10-03T09:53:16Z</time>
      </trkpt>
      <trkpt lat="45.16827" lon="5.69142">
        <ele>210.03809</ele>
        <time>2022-10-03T09:53:26Z</time>
      </trkpt>
      <trkpt lat="45.16794" lon="5.69099">
        <ele>211.0685</ele>
        <time>2022-10-03T09:53:36Z</time>
      </trkpt>
      <trkpt lat="45.16754" lon="5.69052">
        <ele>210.67421</ele>
        <time>2022-10-03T09:53:46Z</time>
      </trkpt>
      <trkpt lat="45.16741" lon="5.69036">
        <ele>211.94118</ele>
        <time>2022-10-03T09:53:56Z</time>
      </trkpt>
      <trkpt lat="45.16755" lon="5.69045">
        <ele>211.60999</ele>
        <time>2022-10-03T10:00:06Z</time>
      </trkpt>
      <trkpt lat="45.16782" lon="5.69053">
        <ele>211.32608</ele>
        <time>2022-10-03T10:00:16Z</time>
      </trkpt>
      <trkpt lat="45.16789" lon="5.69048">
        <ele>211.78346</ele>
        <time>2022-10-03T10:00:38Z</time>
      </trkpt>
      <trkpt lat="45.16817" lon="5.69027">
        <ele>211.83078</ele>
        <time>2022-10-03T10:00:48Z</time>
      </trkpt>
      <trkpt lat="45.16851" lon="5.6898">
        <ele>211.6678</ele>
        <time>2022-10-03T10:00:58Z</time>
      </trkpt>
      <trkpt lat="45.16888" lon="5.68946">
        <ele>212.24608</ele>
        <time>2022-10-03T10:01:08Z</time>
      </trkpt>
      <trkpt lat="45.1693" lon="5.68894">
        <ele>212.70346</ele>
        <time>2022-10-03T10:01:18Z</time>
      </trkpt>
      <trkpt lat="45.16979" lon="5.68839">
        <ele>211.54163</ele>
        <time>2022-10-03T10:01:28Z</time>
      </trkpt>
      <trkpt lat="45.17025" lon="5.68792">
        <ele>211.42072</ele>
        <time>2022-10-03T10:01:38Z</time>
      </trkpt>
      <trkpt lat="45.17085" lon="5.68753">
        <ele>210.42711</ele>
        <time>2022-10-03T10:01:48Z</time>
      </trkpt>
      <trkpt lat="45.17151" lon="5.68729">
        <ele>209.35468</ele>
        <time>2022-10-03T10:01:58Z</time>
      </trkpt>
      <trkpt lat="45.17217" lon="5.68724">
        <ele>207.99306</ele>
        <time>2022-10-03T10:02:08Z</time>
      </trkpt>
      <trkpt lat="45.17283" lon="5.68722">
        <ele>207.31491</ele>
        <time>2022-10-03T10:02:18Z</time>
      </trkpt>
      <trkpt lat="45.17319" lon="5.68712">
        <ele>206.58942</ele>
        <time>2022-10-03T10:02:28Z</time>
      </trkpt>
      <trkpt lat="45.17332" lon="5.68708">
        <ele>206.33708</ele>
        <time>2022-10-03T10:02:42Z</time>
      </trkpt>
      <trkpt lat="45.17377" lon="5.68721">
        <ele>206.43697</ele>
        <time>2022-10-03T10:02:52Z</time>
      </trkpt>
      <trkpt lat="45.17433" lon="5.68724">
        <ele>205.02805</ele>
        <time>2022-10-03T10:03:02Z</time>
      </trkpt>
      <trkpt lat="45.17498" lon="5.68723">
        <ele>204.33937</ele>
        <time>2022-10-03T10:03:12Z</time>
      </trkpt>
      <trkpt lat="45.17559" lon="5.68721">
        <ele>204.09229</ele>
        <time>2022-10-03T10:03:22Z</time>
      </trkpt>
      <trkpt lat="45.17596" lon="5.68689">
        <ele>204.05023</ele>
        <time>2022-10-03T10:03:32Z</time>
      </trkpt>
      <trkpt lat="45.1764" lon="5.68678">
        <ele>203.50874</ele>
        <time>2022-10-03T10:03:42Z</time>
      </trkpt>
      <trkpt lat="45.17686" lon="5.68657">
        <ele>203.50874</ele>
        <time>2022-10-03T10:03:52Z</time>
      </trkpt>
      <trkpt lat="45.17744" lon="5.68675">
        <ele>202.56245</ele>
        <time>2022-10-03T10:04:02Z</time>
      </trkpt>
      <trkpt lat="45.17807" lon="5.68694">
        <ele>201.64246</ele>
        <time>2022-10-03T10:04:12Z</time>
      </trkpt>
      <trkpt lat="45.1787" lon="5.68708">
        <ele>201.46371</ele>
        <time>2022-10-03T10:04:22Z</time>
      </trkpt>
      <trkpt lat="45.17933" lon="5.68723">
        <ele>201.51103</ele>
        <time>2022-10-03T10:04:32Z</time>
      </trkpt>
      <trkpt lat="45.17998" lon="5.68736">
        <ele>201.53731</ele>
        <time>2022-10-03T10:04:42Z</time>
      </trkpt>
      <trkpt lat="45.1806" lon="5.68736">
        <ele>201.34807</ele>
        <time>2022-10-03T10:04:52Z</time>
      </trkpt>
      <trkpt lat="45.18113" lon="5.68732">
        <ele>201.33754</ele>
        <time>2022-10-03T10:05:02Z</time>
      </trkpt>
      <trkpt lat="45.18167" lon="5.68745">
        <ele>201.72131</ele>
        <time>2022-10-03T10:05:12Z</time>
      </trkpt>
      <trkpt lat="45.18222" lon="5.68771">
        <ele>201.21138</ele>
        <time>2022-10-03T10:05:22Z</time>
      </trkpt>
      <trkpt lat="45.18284" lon="5.688">
        <ele>200.95377</ele>
        <time>2022-10-03T10:05:32Z</time>
      </trkpt>
      <trkpt lat="45.18345" lon="5.68829">
        <ele>201.09045</ele>
        <time>2022-10-03T10:05:42Z</time>
      </trkpt>
      <trkpt lat="45.18397" lon="5.68876">
        <ele>200.06007</ele>
        <time>2022-10-03T10:05:52Z</time>
      </trkpt>
      <trkpt lat="45.18432" lon="5.68932">
        <ele>200.40178</ele>
        <time>2022-10-03T10:06:02Z</time>
      </trkpt>
      <trkpt lat="45.18454" lon="5.68906">
        <ele>198.99812</ele>
        <time>2022-10-03T10:06:12Z</time>
      </trkpt>
      <trkpt lat="45.18492" lon="5.68873">
        <ele>198.55127</ele>
        <time>2022-10-03T10:06:22Z</time>
      </trkpt>
      <trkpt lat="45.18522" lon="5.68835">
        <ele>198.08864</ele>
        <time>2022-10-03T10:06:32Z</time>
      </trkpt>
      <trkpt lat="45.18537" lon="5.68788">
        <ele>197.9099</ele>
        <time>2022-10-03T10:06:42Z</time>
      </trkpt>
      <trkpt lat="45.18512" lon="5.68717">
        <ele>197.65755</ele>
        <time>2022-10-03T10:06:52Z</time>
      </trkpt>
      <trkpt lat="45.18513" lon="5.68632">
        <ele>197.17915</ele>
        <time>2022-10-03T10:07:02Z</time>
      </trkpt>
      <trkpt lat="45.1854" lon="5.68553">
        <ele>196.42213</ele>
        <time>2022-10-03T10:07:12Z</time>
      </trkpt>
      <trkpt lat="45.18586" lon="5.68489">
        <ele>196.80064</ele>
        <time>2022-10-03T10:07:22Z</time>
      </trkpt>
      <trkpt lat="45.18629" lon="5.68426">
        <ele>195.9227</ele>
        <time>2022-10-03T10:07:32Z</time>
      </trkpt>
      <trkpt lat="45.1867" lon="5.68364">
        <ele>195.45482</ele>
        <time>2022-10-03T10:07:42Z</time>
      </trkpt>
      <trkpt lat="45.18712" lon="5.68299">
        <ele>195.89642</ele>
        <time>2022-10-03T10:07:52Z</time>
      </trkpt>
      <trkpt lat="45.18757" lon="5.68233">
        <ele>195.12361</ele>
        <time>2022-10-03T10:08:02Z</time>
      </trkpt>
      <trkpt lat="45.18798" lon="5.6817">
        <ele>195.13412</ele>
        <time>2022-10-03T10:08:12Z</time>
      </trkpt>
      <trkpt lat="45.18851" lon="5.68127">
        <ele>194.90808</ele>
        <time>2022-10-03T10:08:22Z</time>
      </trkpt>
      <trkpt lat="45.18909" lon="5.68086">
        <ele>194.661</ele>
        <time>2022-10-03T10:08:32Z</time>
      </trkpt>
      <trkpt lat="45.18961" lon="5.68049">
        <ele>194.85023</ele>
        <time>2022-10-03T10:08:42Z</time>
      </trkpt>
      <trkpt lat="45.19" lon="5.67982">
        <ele>194.68202</ele>
        <time>2022-10-03T10:08:52Z</time>
      </trkpt>
      <trkpt lat="45.19028" lon="5.67906">
        <ele>194.661</ele>
        <time>2022-10-03T10:09:02Z</time>
      </trkpt>
      <trkpt lat="45.19053" lon="5.67828">
        <ele>194.50853</ele>
        <time>2022-10-03T10:09:12Z</time>
      </trkpt>
      <trkpt lat="45.19079" lon="5.67748">
        <ele>194.94487</ele>
        <time>2022-10-03T10:09:22Z</time>
      </trkpt>
      <trkpt lat="45.19082" lon="5.6766">
        <ele>194.76613</ele>
        <time>2022-10-03T10:09:32Z</time>
      </trkpt>
      <trkpt lat="45.19086" lon="5.67571">
        <ele>195.16566</ele>
        <time>2022-10-03T10:09:42Z</time>
      </trkpt>
      <trkpt lat="45.19092" lon="5.67482">
        <ele>195.63882</ele>
        <time>2022-10-03T10:09:52Z</time>
      </trkpt>
      <trkpt lat="45.19114" lon="5.67397">
        <ele>195.97002</ele>
        <time>2022-10-03T10:10:02Z</time>
      </trkpt>
      <trkpt lat="45.19148" lon="5.67323">
        <ele>196.32224</ele>
        <time>2022-10-03T10:10:12Z</time>
      </trkpt>
      <trkpt lat="45.19189" lon="5.67253">
        <ele>196.45367</ele>
        <time>2022-10-03T10:10:22Z</time>
      </trkpt>
      <trkpt lat="45.19247" lon="5.67213">
        <ele>195.16566</ele>
        <time>2022-10-03T10:10:32Z</time>
      </trkpt>
      <trkpt lat="45.19304" lon="5.67189">
        <ele>194.28773</ele>
        <time>2022-10-03T10:10:42Z</time>
      </trkpt>
      <trkpt lat="45.19269" lon="5.67142">
        <ele>194.94487</ele>
        <time>2022-10-03T10:10:52Z</time>
      </trkpt>
      <trkpt lat="45.19268" lon="5.67072">
        <ele>197.07927</ele>
        <time>2022-10-03T10:11:02Z</time>
      </trkpt>
      <trkpt lat="45.19278" lon="5.66999">
        <ele>198.40407</ele>
        <time>2022-10-03T10:11:12Z</time>
      </trkpt>
      <trkpt lat="45.1929" lon="5.66923">
        <ele>199.49754</ele>
        <time>2022-10-03T10:11:22Z</time>
      </trkpt>
      <trkpt lat="45.19327" lon="5.66863">
        <ele>199.66579</ele>
        <time>2022-10-03T10:11:32Z</time>
      </trkpt>
      <trkpt lat="45.19384" lon="5.66818">
        <ele>198.23584</ele>
        <time>2022-10-03T10:11:42Z</time>
      </trkpt>
      <trkpt lat="45.19444" lon="5.66797">
        <ele>199.08224</ele>
        <time>2022-10-03T10:11:52Z</time>
      </trkpt>
      <trkpt lat="45.195" lon="5.66761">
        <ele>197.17915</ele>
        <time>2022-10-03T10:12:02Z</time>
      </trkpt>
      <trkpt lat="45.19569" lon="5.66727">
        <ele>194.40865</ele>
        <time>2022-10-03T10:12:12Z</time>
      </trkpt>
      <trkpt lat="45.19629" lon="5.66687">
        <ele>195.1131</ele>
        <time>2022-10-03T10:12:22Z</time>
      </trkpt>
      <trkpt lat="45.19662" lon="5.66657">
        <ele>196.01733</ele>
        <time>2022-10-03T10:12:32Z</time>
      </trkpt>
      <trkpt lat="45.19704" lon="5.66638">
        <ele>196.07516</ele>
        <time>2022-10-03T10:12:42Z</time>
      </trkpt>
      <trkpt lat="45.19757" lon="5.66597">
        <ele>195.82281</ele>
        <time>2022-10-03T10:12:52Z</time>
      </trkpt>
      <trkpt lat="45.19812" lon="5.66557">
        <ele>196.32224</ele>
        <time>2022-10-03T10:13:02Z</time>
      </trkpt>
      <trkpt lat="45.1986" lon="5.66536">
        <ele>195.7387</ele>
        <time>2022-10-03T10:13:12Z</time>
      </trkpt>
      <trkpt lat="45.19891" lon="5.66523">
        <ele>194.88179</ele>
        <time>2022-10-03T10:13:22Z</time>
      </trkpt>
      <trkpt lat="45.199" lon="5.66523">
        <ele>194.83974</ele>
        <time>2022-10-03T10:15:30Z</time>
      </trkpt>
      <trkpt lat="45.19928" lon="5.66515">
        <ele>194.37184</ele>
        <time>2022-10-03T10:15:40Z</time>
      </trkpt>
      <trkpt lat="45.19973" lon="5.66494">
        <ele>193.34145</ele>
        <time>2022-10-03T10:15:50Z</time>
      </trkpt>
      <trkpt lat="45.20023" lon="5.6647">
        <ele>193.08911</ele>
        <time>2022-10-03T10:16:00Z</time>
      </trkpt>
      <trkpt lat="45.20082" lon="5.66452">
        <ele>192.55814</ele>
        <time>2022-10-03T10:16:10Z</time>
      </trkpt>
      <trkpt lat="45.20142" lon="5.66426">
        <ele>192.65277</ele>
        <time>2022-10-03T10:16:20Z</time>
      </trkpt>
      <trkpt lat="45.20191" lon="5.66378">
        <ele>193.33095</ele>
        <time>2022-10-03T10:16:30Z</time>
      </trkpt>
      <trkpt lat="45.20237" lon="5.66333">
        <ele>193.40454</ele>
        <time>2022-10-03T10:16:40Z</time>
      </trkpt>
      <trkpt lat="45.20272" lon="5.66301">
        <ele>193.64638</ele>
        <time>2022-10-03T10:16:50Z</time>
      </trkpt>
      <trkpt lat="45.20316" lon="5.66259">
        <ele>194.07745</ele>
        <time>2022-10-03T10:17:00Z</time>
      </trkpt>
      <trkpt lat="45.20358" lon="5.66217">
        <ele>194.27196</ele>
        <time>2022-10-03T10:17:10Z</time>
      </trkpt>
      <trkpt lat="45.20407" lon="5.66172">
        <ele>194.7714</ele>
        <time>2022-10-03T10:17:20Z</time>
      </trkpt>
      <trkpt lat="45.20452" lon="5.66126">
        <ele>195.45482</ele>
        <time>2022-10-03T10:17:30Z</time>
      </trkpt>
      <trkpt lat="45.20499" lon="5.66084">
        <ele>195.99629</ele>
        <time>2022-10-03T10:17:40Z</time>
      </trkpt>
      <trkpt lat="45.20549" lon="5.66039">
        <ele>196.19608</ele>
        <time>2022-10-03T10:17:50Z</time>
      </trkpt>
      <trkpt lat="45.20596" lon="5.66001">
        <ele>196.94258</ele>
        <time>2022-10-03T10:18:00Z</time>
      </trkpt>
      <trkpt lat="45.20636" lon="5.65952">
        <ele>197.1476</ele>
        <time>2022-10-03T10:18:10Z</time>
      </trkpt>
      <trkpt lat="45.20683" lon="5.65921">
        <ele>197.36316</ele>
        <time>2022-10-03T10:18:20Z</time>
      </trkpt>
      <trkpt lat="45.20723" lon="5.6587">
        <ele>197.89937</ele>
        <time>2022-10-03T10:18:30Z</time>
      </trkpt>
      <trkpt lat="45.20763" lon="5.65828">
        <ele>198.98761</ele>
        <time>2022-10-03T10:18:40Z</time>
      </trkpt>
      <trkpt lat="45.20817" lon="5.65808">
        <ele>198.95607</ele>
        <time>2022-10-03T10:18:50Z</time>
      </trkpt>
      <trkpt lat="45.20863" lon="5.65817">
        <ele>199.95493</ele>
        <time>2022-10-03T10:19:00Z</time>
      </trkpt>
      <trkpt lat="45.20897" lon="5.65774">
        <ele>202.53618</ele>
        <time>2022-10-03T10:19:10Z</time>
      </trkpt>
      <trkpt lat="45.20939" lon="5.65749">
        <ele>202.84634</ele>
        <time>2022-10-03T10:19:20Z</time>
      </trkpt>
      <trkpt lat="45.20982" lon="5.65739">
        <ele>203.25641</ele>
        <time>2022-10-03T10:19:30Z</time>
      </trkpt>
      <trkpt lat="45.21025" lon="5.6573">
        <ele>203.72954</ele>
        <time>2022-10-03T10:19:40Z</time>
      </trkpt>
      <trkpt lat="45.21072" lon="5.65809">
        <ele>197.47356</ele>
        <time>2022-10-03T10:19:50Z</time>
      </trkpt>
      <trkpt lat="45.21112" lon="5.65909">
        <ele>194.16156</ele>
        <time>2022-10-03T10:20:00Z</time>
      </trkpt>
      <trkpt lat="45.21119" lon="5.66007">
        <ele>193.5307</ele>
        <time>2022-10-03T10:20:10Z</time>
      </trkpt>
      <trkpt lat="45.21111" lon="5.66085">
        <ele>193.06808</ele>
        <time>2022-10-03T10:20:20Z</time>
      </trkpt>
      <trkpt lat="45.21129" lon="5.66162">
        <ele>193.21002</ele>
        <time>2022-10-03T10:20:30Z</time>
      </trkpt>
      <trkpt lat="45.21129" lon="5.66177">
        <ele>193.63585</ele>
        <time>2022-10-03T10:20:40Z</time>
      </trkpt>
      <trkpt lat="45.2114" lon="5.66189">
        <ele>194.01962</ele>
        <time>2022-10-03T10:21:30Z</time>
      </trkpt>
      <trkpt lat="45.21165" lon="5.66236">
        <ele>193.6306</ele>
        <time>2022-10-03T10:21:40Z</time>
      </trkpt>
      <trkpt lat="45.21212" lon="5.66242">
        <ele>191.88522</ele>
        <time>2022-10-03T10:21:50Z</time>
      </trkpt>
      <trkpt lat="45.21272" lon="5.6623">
        <ele>190.74443</ele>
        <time>2022-10-03T10:22:00Z</time>
      </trkpt>
      <trkpt lat="45.21334" lon="5.66217">
        <ele>190.31334</ele>
        <time>2022-10-03T10:22:10Z</time>
      </trkpt>
      <trkpt lat="45.21382" lon="5.66235">
        <ele>190.77072</ele>
        <time>2022-10-03T10:22:20Z</time>
      </trkpt>
      <trkpt lat="45.21409" lon="5.66284">
        <ele>190.12408</ele>
        <time>2022-10-03T10:22:30Z</time>
      </trkpt>
      <trkpt lat="45.21451" lon="5.66324">
        <ele>190.18192</ele>
        <time>2022-10-03T10:22:40Z</time>
      </trkpt>
      <trkpt lat="45.21503" lon="5.66342">
        <ele>190.47632</ele>
        <time>2022-10-03T10:22:50Z</time>
      </trkpt>
      <trkpt lat="45.21561" lon="5.66343">
        <ele>190.58147</ele>
        <time>2022-10-03T10:23:00Z</time>
      </trkpt>
      <trkpt lat="45.2162" lon="5.66315">
        <ele>190.33437</ele>
        <time>2022-10-03T10:23:10Z</time>
      </trkpt>
      <trkpt lat="45.21674" lon="5.66286">
        <ele>191.40683</ele>
        <time>2022-10-03T10:23:20Z</time>
      </trkpt>
      <trkpt lat="45.2173" lon="5.66244">
        <ele>190.05049</ele>
        <time>2022-10-03T10:23:30Z</time>
      </trkpt>
      <trkpt lat="45.21783" lon="5.66199">
        <ele>190.16614</ele>
        <time>2022-10-03T10:23:40Z</time>
      </trkpt>
      <trkpt lat="45.21835" lon="5.66175">
        <ele>189.89803</ele>
        <time>2022-10-03T10:23:50Z</time>
      </trkpt>
      <trkpt lat="45.21893" lon="5.66147">
        <ele>189.9874</ele>
        <time>2022-10-03T10:24:00Z</time>
      </trkpt>
      <trkpt lat="45.21952" lon="5.6612">
        <ele>189.80865</ele>
        <time>2022-10-03T10:24:10Z</time>
      </trkpt>
      <trkpt lat="45.21984" lon="5.66113">
        <ele>190.28705</ele>
        <time>2022-10-03T10:24:20Z</time>
      </trkpt>
      <trkpt lat="45.22023" lon="5.66087">
        <ele>189.43541</ele>
        <time>2022-10-03T10:24:30Z</time>
      </trkpt>
      <trkpt lat="45.22086" lon="5.66084">
        <ele>188.17369</ele>
        <time>2022-10-03T10:24:40Z</time>
      </trkpt>
      <trkpt lat="45.22146" lon="5.66086">
        <ele>188.70467</ele>
        <time>2022-10-03T10:24:50Z</time>
      </trkpt>
      <trkpt lat="45.22193" lon="5.66072">
        <ele>189.48796</ele>
        <time>2022-10-03T10:25:00Z</time>
      </trkpt>
      <trkpt lat="45.22213" lon="5.66038">
        <ele>189.97688</ele>
        <time>2022-10-03T10:25:10Z</time>
      </trkpt>
      <trkpt lat="45.22259" lon="5.66041">
        <ele>190.3186</ele>
        <time>2022-10-03T10:25:20Z</time>
      </trkpt>
      <trkpt lat="45.22312" lon="5.66033">
        <ele>190.23973</ele>
        <time>2022-10-03T10:25:30Z</time>
      </trkpt>
      <trkpt lat="45.22364" lon="5.66026">
        <ele>190.48683</ele>
        <time>2022-10-03T10:25:40Z</time>
      </trkpt>
      <trkpt lat="45.22417" lon="5.66008">
        <ele>191.50671</ele>
        <time>2022-10-03T10:25:50Z</time>
      </trkpt>
      <trkpt lat="45.22474" lon="5.65978">
        <ele>190.1714</ele>
        <time>2022-10-03T10:26:00Z</time>
      </trkpt>
      <trkpt lat="45.22508" lon="5.65917">
        <ele>189.07266</ele>
        <time>2022-10-03T10:26:10Z</time>
      </trkpt>
      <trkpt lat="45.22527" lon="5.65886">
        <ele>188.85712</ele>
        <time>2022-10-03T10:26:20Z</time>
      </trkpt>
      <trkpt lat="45.22532" lon="5.65873">
        <ele>188.89392</ele>
        <time>2022-10-03T10:26:30Z</time>
      </trkpt>
      <trkpt lat="45.22537" lon="5.65858">
        <ele>188.78877</ele>
        <time>2022-10-03T10:27:22Z</time>
      </trkpt>
      <trkpt lat="45.2254" lon="5.65843">
        <ele>188.58376</ele>
        <time>2022-10-03T10:27:34Z</time>
      </trkpt>
      <trkpt lat="45.22543" lon="5.65828">
        <ele>188.68364</ele>
        <time>2022-10-03T10:27:46Z</time>
      </trkpt>
      <trkpt lat="45.22548" lon="5.65812">
        <ele>188.83083</ele>
        <time>2022-10-03T10:28:38Z</time>
      </trkpt>
      <trkpt lat="45.22565" lon="5.65769">
        <ele>188.64159</ele>
        <time>2022-10-03T10:28:48Z</time>
      </trkpt>
      <trkpt lat="45.22608" lon="5.65772">
        <ele>188.67838</ele>
        <time>2022-10-03T10:28:58Z</time>
      </trkpt>
      <trkpt lat="45.22656" lon="5.65775">
        <ele>188.89919</ele>
        <time>2022-10-03T10:29:08Z</time>
      </trkpt>
      <trkpt lat="45.22712" lon="5.65782">
        <ele>188.70992</ele>
        <time>2022-10-03T10:29:18Z</time>
      </trkpt>
      <trkpt lat="45.22766" lon="5.65785">
        <ele>189.23038</ele>
        <time>2022-10-03T10:29:28Z</time>
      </trkpt>
      <trkpt lat="45.22767" lon="5.6583">
        <ele>188.21574</ele>
        <time>2022-10-03T10:29:38Z</time>
      </trkpt>
      <trkpt lat="45.22768" lon="5.65899">
        <ele>188.08957</ele>
        <time>2022-10-03T10:29:48Z</time>
      </trkpt>
      <trkpt lat="45.22767" lon="5.65972">
        <ele>188.67838</ele>
        <time>2022-10-03T10:29:58Z</time>
      </trkpt>
      <trkpt lat="45.22773" lon="5.6605">
        <ele>189.43541</ele>
        <time>2022-10-03T10:30:08Z</time>
      </trkpt>
      <trkpt lat="45.22779" lon="5.66126">
        <ele>188.96751</ele>
        <time>2022-10-03T10:30:18Z</time>
      </trkpt>
      <trkpt lat="45.22809" lon="5.66112">
        <ele>189.08318</ele>
        <time>2022-10-03T10:30:28Z</time>
      </trkpt>
      <trkpt lat="45.22844" lon="5.66068">
        <ele>188.95702</ele>
        <time>2022-10-03T10:30:38Z</time>
      </trkpt>
      <trkpt lat="45.22874" lon="5.66033">
        <ele>188.70992</ele>
        <time>2022-10-03T10:30:48Z</time>
      </trkpt>
      <trkpt lat="45.22917" lon="5.65987">
        <ele>188.70992</ele>
        <time>2022-10-03T10:30:58Z</time>
      </trkpt>
      <trkpt lat="45.22963" lon="5.65934">
        <ele>188.43129</ele>
        <time>2022-10-03T10:31:08Z</time>
      </trkpt>
      <trkpt lat="45.23013" lon="5.65891">
        <ele>188.69414</ele>
        <time>2022-10-03T10:31:18Z</time>
      </trkpt>
      <trkpt lat="45.2307" lon="5.65869">
        <ele>188.55222</ele>
        <time>2022-10-03T10:31:28Z</time>
      </trkpt>
      <trkpt lat="45.23126" lon="5.65825">
        <ele>188.21574</ele>
        <time>2022-10-03T10:31:38Z</time>
      </trkpt>
      <trkpt lat="45.23178" lon="5.65783">
        <ele>188.55745</ele>
        <time>2022-10-03T10:31:48Z</time>
      </trkpt>
      <trkpt lat="45.23229" lon="5.65738">
        <ele>188.28935</ele>
        <time>2022-10-03T10:31:58Z</time>
      </trkpt>
      <trkpt lat="45.23277" lon="5.65692">
        <ele>188.39449</ele>
        <time>2022-10-03T10:32:08Z</time>
      </trkpt>
      <trkpt lat="45.23327" lon="5.65645">
        <ele>188.07382</ele>
        <time>2022-10-03T10:32:18Z</time>
      </trkpt>
      <trkpt lat="45.23379" lon="5.65594">
        <ele>187.6322</ele>
        <time>2022-10-03T10:32:28Z</time>
      </trkpt>
      <trkpt lat="45.23424" lon="5.65544">
        <ele>187.93187</ele>
        <time>2022-10-03T10:32:38Z</time>
      </trkpt>
      <trkpt lat="45.23456" lon="5.65555">
        <ele>188.60477</ele>
        <time>2022-10-03T10:32:48Z</time>
      </trkpt>
      <trkpt lat="45.23464" lon="5.65603">
        <ele>189.41437</ele>
        <time>2022-10-03T10:32:58Z</time>
      </trkpt>
      <trkpt lat="45.23448" lon="5.65642">
        <ele>190.77072</ele>
        <time>2022-10-03T10:33:08Z</time>
      </trkpt>
      <trkpt lat="45.23428" lon="5.65676">
        <ele>191.56454</ele>
        <time>2022-10-03T10:33:18Z</time>
      </trkpt>
      <trkpt lat="45.23427" lon="5.65692">
        <ele>192.57391</ele>
        <time>2022-10-03T10:33:28Z</time>
      </trkpt>
      <trkpt lat="45.23452" lon="5.65648">
        <ele>192.44249</ele>
        <time>2022-10-03T10:33:38Z</time>
      </trkpt>
      <trkpt lat="45.23498" lon="5.65615">
        <ele>190.76021</ele>
        <time>2022-10-03T10:33:48Z</time>
      </trkpt>
      <trkpt lat="45.23525" lon="5.65587">
        <ele>190.65506</ele>
        <time>2022-10-03T10:33:58Z</time>
      </trkpt>
      <trkpt lat="45.23563" lon="5.65553">
        <ele>192.33734</ele>
        <time>2022-10-03T10:34:08Z</time>
      </trkpt>
      <trkpt lat="45.23613" lon="5.65533">
        <ele>192.28476</ele>
        <time>2022-10-03T10:34:18Z</time>
      </trkpt>
      <trkpt lat="45.23666" lon="5.65529">
        <ele>192.02191</ele>
        <time>2022-10-03T10:34:28Z</time>
      </trkpt>
      <trkpt lat="45.23737" lon="5.65527">
        <ele>191.901</ele>
        <time>2022-10-03T10:34:38Z</time>
      </trkpt>
      <trkpt lat="45.23792" lon="5.65499">
        <ele>191.8642</ele>
        <time>2022-10-03T10:34:48Z</time>
      </trkpt>
      <trkpt lat="45.23848" lon="5.65456">
        <ele>192.17438</ele>
        <time>2022-10-03T10:34:58Z</time>
      </trkpt>
      <trkpt lat="45.23911" lon="5.65411">
        <ele>192.00615</ele>
        <time>2022-10-03T10:35:08Z</time>
      </trkpt>
      <trkpt lat="45.2396" lon="5.6537">
        <ele>191.85895</ele>
        <time>2022-10-03T10:35:18Z</time>
      </trkpt>
      <trkpt lat="45.24018" lon="5.65329">
        <ele>191.97984</ele>
        <time>2022-10-03T10:35:28Z</time>
      </trkpt>
      <trkpt lat="45.24084" lon="5.65292">
        <ele>192.15334</ele>
        <time>2022-10-03T10:35:38Z</time>
      </trkpt>
      <trkpt lat="45.24141" lon="5.65267">
        <ele>191.92201</ele>
        <time>2022-10-03T10:35:48Z</time>
      </trkpt>
      <trkpt lat="45.24205" lon="5.65242">
        <ele>191.63814</ele>
        <time>2022-10-03T10:35:58Z</time>
      </trkpt>
      <trkpt lat="45.2427" lon="5.65196">
        <ele>191.75905</ele>
        <time>2022-10-03T10:36:08Z</time>
      </trkpt>
      <trkpt lat="45.24323" lon="5.65156">
        <ele>191.33324</ele>
        <time>2022-10-03T10:36:18Z</time>
      </trkpt>
      <trkpt lat="45.2438" lon="5.65115">
        <ele>191.76431</ele>
        <time>2022-10-03T10:36:28Z</time>
      </trkpt>
      <trkpt lat="45.24444" lon="5.65066">
        <ele>191.48044</ele>
        <time>2022-10-03T10:36:38Z</time>
      </trkpt>
      <trkpt lat="45.24497" lon="5.6503">
        <ele>191.32797</ele>
        <time>2022-10-03T10:36:48Z</time>
      </trkpt>
      <trkpt lat="45.24561" lon="5.64986">
        <ele>191.07564</ele>
        <time>2022-10-03T10:36:58Z</time>
      </trkpt>
      <trkpt lat="45.24619" lon="5.64941">
        <ele>191.09665</ele>
        <time>2022-10-03T10:37:08Z</time>
      </trkpt>
      <trkpt lat="45.24674" lon="5.64895">
        <ele>190.91791</ele>
        <time>2022-10-03T10:37:18Z</time>
      </trkpt>
      <trkpt lat="45.24728" lon="5.64846">
        <ele>190.9074</ele>
        <time>2022-10-03T10:37:28Z</time>
      </trkpt>
      <trkpt lat="45.24778" lon="5.6479">
        <ele>191.26488</ele>
        <time>2022-10-03T10:37:38Z</time>
      </trkpt>
      <trkpt lat="45.24756" lon="5.64694">
        <ele>186.74374</ele>
        <time>2022-10-03T10:37:48Z</time>
      </trkpt>
      <trkpt lat="45.24731" lon="5.64603">
        <ele>186.12866</ele>
        <time>2022-10-03T10:37:58Z</time>
      </trkpt>
      <trkpt lat="45.24709" lon="5.64515">
        <ele>186.17072</ele>
        <time>2022-10-03T10:38:08Z</time>
      </trkpt>
      <trkpt lat="45.24687" lon="5.64428">
        <ele>185.7817</ele>
        <time>2022-10-03T10:38:18Z</time>
      </trkpt>
      <trkpt lat="45.24665" lon="5.64346">
        <ele>186.27061</ele>
        <time>2022-10-03T10:38:28Z</time>
      </trkpt>
      <trkpt lat="45.24645" lon="5.64256">
        <ele>186.04456</ele>
        <time>2022-10-03T10:38:38Z</time>
      </trkpt>
      <trkpt lat="45.24623" lon="5.64168">
        <ele>186.43883</ele>
        <time>2022-10-03T10:38:48Z</time>
      </trkpt>
      <trkpt lat="45.24603" lon="5.64083">
        <ele>185.85005</ele>
        <time>2022-10-03T10:38:58Z</time>
      </trkpt>
      <trkpt lat="45.24614" lon="5.64012">
        <ele>185.34535</ele>
        <time>2022-10-03T10:39:08Z</time>
      </trkpt>
      <trkpt lat="45.24661" lon="5.63953">
        <ele>185.1561</ele>
        <time>2022-10-03T10:39:18Z</time>
      </trkpt>
      <trkpt lat="45.24707" lon="5.63894">
        <ele>185.461</ele>
        <time>2022-10-03T10:39:28Z</time>
      </trkpt>
      <trkpt lat="45.24755" lon="5.63833">
        <ele>185.35062</ele>
        <time>2022-10-03T10:39:38Z</time>
      </trkpt>
      <trkpt lat="45.24802" lon="5.63775">
        <ele>185.16661</ele>
        <time>2022-10-03T10:39:48Z</time>
      </trkpt>
      <trkpt lat="45.2484" lon="5.63702">
        <ele>185.20866</ele>
        <time>2022-10-03T10:39:58Z</time>
      </trkpt>
      <trkpt lat="45.24868" lon="5.63622">
        <ele>184.77232</ele>
        <time>2022-10-03T10:40:08Z</time>
      </trkpt>
      <trkpt lat="45.24884" lon="5.63536">
        <ele>186.01302</ele>
        <time>2022-10-03T10:40:18Z</time>
      </trkpt>
      <trkpt lat="45.24905" lon="5.6345">
        <ele>184.71976</ele>
        <time>2022-10-03T10:40:28Z</time>
      </trkpt>
      <trkpt lat="45.24943" lon="5.63376">
        <ele>184.34651</ele>
        <time>2022-10-03T10:40:38Z</time>
      </trkpt>
      <trkpt lat="45.24968" lon="5.633">
        <ele>185.23497</ele>
        <time>2022-10-03T10:40:48Z</time>
      </trkpt>
      <trkpt lat="45.24956" lon="5.63212">
        <ele>185.50308</ele>
        <time>2022-10-03T10:40:58Z</time>
      </trkpt>
      <trkpt lat="45.24994" lon="5.63154">
        <ele>185.83427</ele>
        <time>2022-10-03T10:41:08Z</time>
      </trkpt>
      <trkpt lat="45.24979" lon="5.63095">
        <ele>188.16318</ele>
        <time>2022-10-03T10:41:18Z</time>
      </trkpt>
      <trkpt lat="45.2496" lon="5.63035">
        <ele>190.41847</ele>
        <time>2022-10-03T10:41:28Z</time>
      </trkpt>
      <trkpt lat="45.2493" lon="5.63003">
        <ele>193.13641</ele>
        <time>2022-10-03T10:41:38Z</time>
      </trkpt>
      <trkpt lat="45.24893" lon="5.62997">
        <ele>197.01094</ele>
        <time>2022-10-03T10:41:48Z</time>
      </trkpt>
      <trkpt lat="45.24877" lon="5.62956">
        <ele>200.31241</ele>
        <time>2022-10-03T10:41:58Z</time>
      </trkpt>
      <trkpt lat="45.24845" lon="5.62959">
        <ele>202.04726</ele>
        <time>2022-10-03T10:42:08Z</time>
      </trkpt>
      <trkpt lat="45.24791" lon="5.62969">
        <ele>202.72542</ele>
        <time>2022-10-03T10:42:18Z</time>
      </trkpt>
      <trkpt lat="45.24734" lon="5.62984">
        <ele>203.16704</ele>
        <time>2022-10-03T10:42:28Z</time>
      </trkpt>
      <trkpt lat="45.24675" lon="5.62993">
        <ele>203.75056</ele>
        <time>2022-10-03T10:42:38Z</time>
      </trkpt>
      <trkpt lat="45.24617" lon="5.62994">
        <ele>205.22781</ele>
        <time>2022-10-03T10:42:48Z</time>
      </trkpt>
      <trkpt lat="45.24582" lon="5.62983">
        <ele>206.9469</ele>
        <time>2022-10-03T10:42:58Z</time>
      </trkpt>
      <trkpt lat="45.24599" lon="5.62937">
        <ele>209.87512</ele>
        <time>2022-10-03T10:43:08Z</time>
      </trkpt>
      <trkpt lat="45.24623" lon="5.62884">
        <ele>211.94643</ele>
        <time>2022-10-03T10:43:18Z</time>
      </trkpt>
      <trkpt lat="45.24646" lon="5.62873">
        <ele>211.0685</ele>
        <time>2022-10-03T10:43:28Z</time>
      </trkpt>
      <trkpt lat="45.24647" lon="5.62872">
        <ele>211.01591</ele>
        <time>2022-10-03T10:43:34Z</time>
        <extensions>
          <gpxtpx:TrackPointExtension xmlns:gpxtpx="http://www.garmin.com/xmlschemas/TrackPointExtension/v1">
            <gpxtpx:hr>133</gpxtpx:hr>
          </gpxtpx:TrackPointExtension>
        </extensions>
      </trkpt>
    </trkseg>
  </trk>
</gpx>